<?xml version="1.0" encoding="UTF-8" standalone="no" ?>
<gpx xmlns="http://www.topografix.com/GPX/1/1" xmlns:xsi="http://www.w3.org/2001/XMLSchema-instance" xsi:schemaLocation="http://www.topografix.com/GPX/1/1 http://www.topografix.com/GPX/1/1/gpx.xsd" version="1.1" creator="VisuGPX - https://www.visugpx.com">
  <metadata>
    <name>Mt cerisy 27</name>
  </metadata>
  <trk>
    <name><![CDATA[Mt cerisy 27_1]]></name>
    <trkseg>
      <trkpt lat="48.7478" lon="-0.57186">
        <ele>208</ele>
        <time>2013-08-23T09:29:11Z</time>
      </trkpt>
      <trkpt lat="48.74782" lon="-0.57185">
        <ele>208</ele>
        <time>2013-08-23T09:29:12Z</time>
      </trkpt>
      <trkpt lat="48.74803" lon="-0.57156">
        <ele>208.2</ele>
        <time>2013-08-23T09:29:24Z</time>
      </trkpt>
      <trkpt lat="48.74823" lon="-0.57103">
        <ele>209</ele>
        <time>2013-08-23T09:29:37Z</time>
      </trkpt>
      <trkpt lat="48.7484" lon="-0.57036">
        <ele>211.2</ele>
        <time>2013-08-23T09:29:50Z</time>
      </trkpt>
      <trkpt lat="48.74851" lon="-0.57012">
        <ele>212.2</ele>
        <time>2013-08-23T09:29:56Z</time>
      </trkpt>
      <trkpt lat="48.74854" lon="-0.5701">
        <ele>212.6</ele>
        <time>2013-08-23T09:29:57Z</time>
      </trkpt>
      <trkpt lat="48.74857" lon="-0.5701">
        <ele>212.6</ele>
        <time>2013-08-23T09:29:58Z</time>
      </trkpt>
      <trkpt lat="48.74859" lon="-0.5701">
        <ele>212.8</ele>
        <time>2013-08-23T09:29:59Z</time>
      </trkpt>
      <trkpt lat="48.7486" lon="-0.57012">
        <ele>212.8</ele>
        <time>2013-08-23T09:30:00Z</time>
      </trkpt>
      <trkpt lat="48.74861" lon="-0.57012">
        <ele>213.8</ele>
        <time>2013-08-23T09:30:05Z</time>
      </trkpt>
      <trkpt lat="48.74873" lon="-0.57029">
        <ele>214.6</ele>
        <time>2013-08-23T09:30:27Z</time>
      </trkpt>
      <trkpt lat="48.74886" lon="-0.57033">
        <ele>214.8</ele>
        <time>2013-08-23T09:30:33Z</time>
      </trkpt>
      <trkpt lat="48.74888" lon="-0.57033">
        <ele>214.8</ele>
        <time>2013-08-23T09:30:34Z</time>
      </trkpt>
      <trkpt lat="48.74922" lon="-0.57056">
        <ele>215.2</ele>
        <time>2013-08-23T09:30:42Z</time>
      </trkpt>
      <trkpt lat="48.74962" lon="-0.57079">
        <ele>215.4</ele>
        <time>2013-08-23T09:30:51Z</time>
      </trkpt>
      <trkpt lat="48.74967" lon="-0.57083">
        <ele>215.6</ele>
        <time>2013-08-23T09:30:52Z</time>
      </trkpt>
      <trkpt lat="48.74972" lon="-0.57086">
        <ele>215.6</ele>
        <time>2013-08-23T09:30:53Z</time>
      </trkpt>
      <trkpt lat="48.74994" lon="-0.57099">
        <ele>215.8</ele>
        <time>2013-08-23T09:30:56Z</time>
      </trkpt>
      <trkpt lat="48.74999" lon="-0.57101">
        <ele>215.8</ele>
        <time>2013-08-23T09:30:57Z</time>
      </trkpt>
      <trkpt lat="48.75003" lon="-0.571">
        <ele>216</ele>
        <time>2013-08-23T09:30:58Z</time>
      </trkpt>
      <trkpt lat="48.75008" lon="-0.57097">
        <ele>216</ele>
        <time>2013-08-23T09:30:59Z</time>
      </trkpt>
      <trkpt lat="48.75012" lon="-0.57093">
        <ele>216</ele>
        <time>2013-08-23T09:31:00Z</time>
      </trkpt>
      <trkpt lat="48.75029" lon="-0.57082">
        <ele>216.6</ele>
        <time>2013-08-23T09:31:05Z</time>
      </trkpt>
      <trkpt lat="48.75033" lon="-0.57083">
        <ele>216.8</ele>
        <time>2013-08-23T09:31:06Z</time>
      </trkpt>
      <trkpt lat="48.75036" lon="-0.57086">
        <ele>217.2</ele>
        <time>2013-08-23T09:31:07Z</time>
      </trkpt>
      <trkpt lat="48.7504" lon="-0.57089">
        <ele>217.4</ele>
        <time>2013-08-23T09:31:08Z</time>
      </trkpt>
      <trkpt lat="48.75043" lon="-0.57094">
        <ele>217.6</ele>
        <time>2013-08-23T09:31:09Z</time>
      </trkpt>
      <trkpt lat="48.75046" lon="-0.57099">
        <ele>217.8</ele>
        <time>2013-08-23T09:31:10Z</time>
      </trkpt>
      <trkpt lat="48.75049" lon="-0.57104">
        <ele>218</ele>
        <time>2013-08-23T09:31:11Z</time>
      </trkpt>
      <trkpt lat="48.75051" lon="-0.5711">
        <ele>218</ele>
        <time>2013-08-23T09:31:12Z</time>
      </trkpt>
      <trkpt lat="48.75052" lon="-0.57118">
        <ele>218.2</ele>
        <time>2013-08-23T09:31:13Z</time>
      </trkpt>
      <trkpt lat="48.75053" lon="-0.57126">
        <ele>218</ele>
        <time>2013-08-23T09:31:14Z</time>
      </trkpt>
      <trkpt lat="48.75055" lon="-0.57134">
        <ele>218</ele>
        <time>2013-08-23T09:31:15Z</time>
      </trkpt>
      <trkpt lat="48.75058" lon="-0.57142">
        <ele>217.8</ele>
        <time>2013-08-23T09:31:16Z</time>
      </trkpt>
      <trkpt lat="48.75062" lon="-0.57149">
        <ele>217.8</ele>
        <time>2013-08-23T09:31:17Z</time>
      </trkpt>
      <trkpt lat="48.75067" lon="-0.57153">
        <ele>217.6</ele>
        <time>2013-08-23T09:31:18Z</time>
      </trkpt>
      <trkpt lat="48.75073" lon="-0.57157">
        <ele>217.4</ele>
        <time>2013-08-23T09:31:19Z</time>
      </trkpt>
      <trkpt lat="48.75078" lon="-0.5716">
        <ele>217.2</ele>
        <time>2013-08-23T09:31:20Z</time>
      </trkpt>
      <trkpt lat="48.75099" lon="-0.57174">
        <ele>216.6</ele>
        <time>2013-08-23T09:31:26Z</time>
      </trkpt>
      <trkpt lat="48.75103" lon="-0.57177">
        <ele>216.6</ele>
        <time>2013-08-23T09:31:27Z</time>
      </trkpt>
      <trkpt lat="48.7517" lon="-0.57222">
        <ele>215.2</ele>
        <time>2013-08-23T09:31:42Z</time>
      </trkpt>
      <trkpt lat="48.75236" lon="-0.57263">
        <ele>214</ele>
        <time>2013-08-23T09:31:57Z</time>
      </trkpt>
      <trkpt lat="48.75252" lon="-0.5727">
        <ele>213.4</ele>
        <time>2013-08-23T09:32:02Z</time>
      </trkpt>
      <trkpt lat="48.75254" lon="-0.57269">
        <ele>213.4</ele>
        <time>2013-08-23T09:32:03Z</time>
      </trkpt>
      <trkpt lat="48.75258" lon="-0.57265">
        <ele>213</ele>
        <time>2013-08-23T09:32:06Z</time>
      </trkpt>
      <trkpt lat="48.7526" lon="-0.57264">
        <ele>213</ele>
        <time>2013-08-23T09:32:07Z</time>
      </trkpt>
      <trkpt lat="48.75261" lon="-0.57263">
        <ele>213</ele>
        <time>2013-08-23T09:32:08Z</time>
      </trkpt>
      <trkpt lat="48.75266" lon="-0.57266">
        <ele>213</ele>
        <time>2013-08-23T09:32:15Z</time>
      </trkpt>
      <trkpt lat="48.75266" lon="-0.5727">
        <ele>213</ele>
        <time>2013-08-23T09:32:16Z</time>
      </trkpt>
      <trkpt lat="48.75265" lon="-0.57275">
        <ele>213</ele>
        <time>2013-08-23T09:32:17Z</time>
      </trkpt>
      <trkpt lat="48.75251" lon="-0.57357">
        <ele>211.6</ele>
        <time>2013-08-23T09:32:27Z</time>
      </trkpt>
      <trkpt lat="48.75239" lon="-0.57437">
        <ele>208.6</ele>
        <time>2013-08-23T09:32:36Z</time>
      </trkpt>
      <trkpt lat="48.75234" lon="-0.5746">
        <ele>207.2</ele>
        <time>2013-08-23T09:32:46Z</time>
      </trkpt>
      <trkpt lat="48.75232" lon="-0.57479">
        <ele>207</ele>
        <time>2013-08-23T09:32:50Z</time>
      </trkpt>
      <trkpt lat="48.75234" lon="-0.57486">
        <ele>207</ele>
        <time>2013-08-23T09:32:51Z</time>
      </trkpt>
      <trkpt lat="48.75236" lon="-0.57492">
        <ele>206.8</ele>
        <time>2013-08-23T09:32:52Z</time>
      </trkpt>
      <trkpt lat="48.7524" lon="-0.57498">
        <ele>206.6</ele>
        <time>2013-08-23T09:32:53Z</time>
      </trkpt>
      <trkpt lat="48.75243" lon="-0.57503">
        <ele>206.6</ele>
        <time>2013-08-23T09:32:54Z</time>
      </trkpt>
      <trkpt lat="48.75246" lon="-0.5751">
        <ele>206.6</ele>
        <time>2013-08-23T09:32:55Z</time>
      </trkpt>
      <trkpt lat="48.75249" lon="-0.57517">
        <ele>206.4</ele>
        <time>2013-08-23T09:32:56Z</time>
      </trkpt>
      <trkpt lat="48.75257" lon="-0.5753">
        <ele>206</ele>
        <time>2013-08-23T09:32:58Z</time>
      </trkpt>
      <trkpt lat="48.75261" lon="-0.57536">
        <ele>206</ele>
        <time>2013-08-23T09:32:59Z</time>
      </trkpt>
      <trkpt lat="48.75266" lon="-0.57541">
        <ele>205.8</ele>
        <time>2013-08-23T09:33:00Z</time>
      </trkpt>
      <trkpt lat="48.75272" lon="-0.57544">
        <ele>205.6</ele>
        <time>2013-08-23T09:33:01Z</time>
      </trkpt>
      <trkpt lat="48.75277" lon="-0.57547">
        <ele>205.6</ele>
        <time>2013-08-23T09:33:02Z</time>
      </trkpt>
      <trkpt lat="48.75282" lon="-0.5755">
        <ele>205.4</ele>
        <time>2013-08-23T09:33:03Z</time>
      </trkpt>
      <trkpt lat="48.75313" lon="-0.57576">
        <ele>204.8</ele>
        <time>2013-08-23T09:33:10Z</time>
      </trkpt>
      <trkpt lat="48.75317" lon="-0.5758">
        <ele>204.8</ele>
        <time>2013-08-23T09:33:11Z</time>
      </trkpt>
      <trkpt lat="48.7532" lon="-0.57586">
        <ele>204.8</ele>
        <time>2013-08-23T09:33:12Z</time>
      </trkpt>
      <trkpt lat="48.7532" lon="-0.57593">
        <ele>204.6</ele>
        <time>2013-08-23T09:33:13Z</time>
      </trkpt>
      <trkpt lat="48.7532" lon="-0.576">
        <ele>204.6</ele>
        <time>2013-08-23T09:33:14Z</time>
      </trkpt>
      <trkpt lat="48.75319" lon="-0.57607">
        <ele>204.6</ele>
        <time>2013-08-23T09:33:15Z</time>
      </trkpt>
      <trkpt lat="48.75317" lon="-0.57614">
        <ele>204.4</ele>
        <time>2013-08-23T09:33:16Z</time>
      </trkpt>
      <trkpt lat="48.75315" lon="-0.57621">
        <ele>204.4</ele>
        <time>2013-08-23T09:33:17Z</time>
      </trkpt>
      <trkpt lat="48.75299" lon="-0.57669">
        <ele>204.2</ele>
        <time>2013-08-23T09:33:24Z</time>
      </trkpt>
      <trkpt lat="48.75298" lon="-0.57676">
        <ele>204.2</ele>
        <time>2013-08-23T09:33:25Z</time>
      </trkpt>
      <trkpt lat="48.75298" lon="-0.57685">
        <ele>204.2</ele>
        <time>2013-08-23T09:33:26Z</time>
      </trkpt>
      <trkpt lat="48.75299" lon="-0.57693">
        <ele>204.2</ele>
        <time>2013-08-23T09:33:27Z</time>
      </trkpt>
      <trkpt lat="48.753" lon="-0.57701">
        <ele>204.2</ele>
        <time>2013-08-23T09:33:28Z</time>
      </trkpt>
      <trkpt lat="48.75302" lon="-0.57709">
        <ele>204.2</ele>
        <time>2013-08-23T09:33:29Z</time>
      </trkpt>
      <trkpt lat="48.75309" lon="-0.57742">
        <ele>204.2</ele>
        <time>2013-08-23T09:33:33Z</time>
      </trkpt>
      <trkpt lat="48.75313" lon="-0.5775">
        <ele>204.2</ele>
        <time>2013-08-23T09:33:34Z</time>
      </trkpt>
      <trkpt lat="48.75317" lon="-0.57756">
        <ele>204.2</ele>
        <time>2013-08-23T09:33:35Z</time>
      </trkpt>
      <trkpt lat="48.75323" lon="-0.57759">
        <ele>204.2</ele>
        <time>2013-08-23T09:33:36Z</time>
      </trkpt>
      <trkpt lat="48.75328" lon="-0.57761">
        <ele>204.2</ele>
        <time>2013-08-23T09:33:37Z</time>
      </trkpt>
      <trkpt lat="48.75333" lon="-0.57765">
        <ele>204.2</ele>
        <time>2013-08-23T09:33:38Z</time>
      </trkpt>
      <trkpt lat="48.75338" lon="-0.57768">
        <ele>204</ele>
        <time>2013-08-23T09:33:39Z</time>
      </trkpt>
      <trkpt lat="48.75342" lon="-0.57772">
        <ele>204</ele>
        <time>2013-08-23T09:33:40Z</time>
      </trkpt>
      <trkpt lat="48.75347" lon="-0.57776">
        <ele>204</ele>
        <time>2013-08-23T09:33:41Z</time>
      </trkpt>
      <trkpt lat="48.75361" lon="-0.57791">
        <ele>204.2</ele>
        <time>2013-08-23T09:33:45Z</time>
      </trkpt>
      <trkpt lat="48.75363" lon="-0.57797">
        <ele>204.2</ele>
        <time>2013-08-23T09:33:46Z</time>
      </trkpt>
      <trkpt lat="48.75362" lon="-0.57802">
        <ele>204.2</ele>
        <time>2013-08-23T09:33:47Z</time>
      </trkpt>
      <trkpt lat="48.75362" lon="-0.57808">
        <ele>204.2</ele>
        <time>2013-08-23T09:33:48Z</time>
      </trkpt>
      <trkpt lat="48.7536" lon="-0.57813">
        <ele>204.2</ele>
        <time>2013-08-23T09:33:49Z</time>
      </trkpt>
      <trkpt lat="48.75359" lon="-0.57818">
        <ele>204.2</ele>
        <time>2013-08-23T09:33:50Z</time>
      </trkpt>
      <trkpt lat="48.75357" lon="-0.57823">
        <ele>204.2</ele>
        <time>2013-08-23T09:33:51Z</time>
      </trkpt>
      <trkpt lat="48.7535" lon="-0.5784">
        <ele>204.2</ele>
        <time>2013-08-23T09:33:54Z</time>
      </trkpt>
      <trkpt lat="48.75347" lon="-0.57845">
        <ele>204.2</ele>
        <time>2013-08-23T09:33:55Z</time>
      </trkpt>
      <trkpt lat="48.75346" lon="-0.5785">
        <ele>204.2</ele>
        <time>2013-08-23T09:33:56Z</time>
      </trkpt>
      <trkpt lat="48.75345" lon="-0.57855">
        <ele>204.2</ele>
        <time>2013-08-23T09:33:57Z</time>
      </trkpt>
      <trkpt lat="48.75347" lon="-0.5786">
        <ele>204.2</ele>
        <time>2013-08-23T09:33:58Z</time>
      </trkpt>
      <trkpt lat="48.75348" lon="-0.57865">
        <ele>204.2</ele>
        <time>2013-08-23T09:33:59Z</time>
      </trkpt>
      <trkpt lat="48.75348" lon="-0.5787">
        <ele>204.2</ele>
        <time>2013-08-23T09:34:00Z</time>
      </trkpt>
      <trkpt lat="48.75348" lon="-0.57874">
        <ele>204.4</ele>
        <time>2013-08-23T09:34:01Z</time>
      </trkpt>
      <trkpt lat="48.75347" lon="-0.57878">
        <ele>204.4</ele>
        <time>2013-08-23T09:34:02Z</time>
      </trkpt>
      <trkpt lat="48.75345" lon="-0.57882">
        <ele>204.6</ele>
        <time>2013-08-23T09:34:03Z</time>
      </trkpt>
      <trkpt lat="48.75344" lon="-0.57887">
        <ele>204.8</ele>
        <time>2013-08-23T09:34:04Z</time>
      </trkpt>
      <trkpt lat="48.75343" lon="-0.57892">
        <ele>205</ele>
        <time>2013-08-23T09:34:05Z</time>
      </trkpt>
      <trkpt lat="48.7534" lon="-0.57899">
        <ele>205.4</ele>
        <time>2013-08-23T09:34:07Z</time>
      </trkpt>
      <trkpt lat="48.7534" lon="-0.57902">
        <ele>205.6</ele>
        <time>2013-08-23T09:34:08Z</time>
      </trkpt>
      <trkpt lat="48.75342" lon="-0.57904">
        <ele>205.8</ele>
        <time>2013-08-23T09:34:09Z</time>
      </trkpt>
      <trkpt lat="48.75346" lon="-0.57907">
        <ele>206.2</ele>
        <time>2013-08-23T09:34:10Z</time>
      </trkpt>
      <trkpt lat="48.7535" lon="-0.5791">
        <ele>206.6</ele>
        <time>2013-08-23T09:34:11Z</time>
      </trkpt>
      <trkpt lat="48.7538" lon="-0.57937">
        <ele>207.6</ele>
        <time>2013-08-23T09:34:18Z</time>
      </trkpt>
      <trkpt lat="48.75441" lon="-0.58032">
        <ele>207</ele>
        <time>2013-08-23T09:34:34Z</time>
      </trkpt>
      <trkpt lat="48.75474" lon="-0.58066">
        <ele>205.6</ele>
        <time>2013-08-23T09:34:43Z</time>
      </trkpt>
      <trkpt lat="48.75474" lon="-0.58069">
        <ele>205.4</ele>
        <time>2013-08-23T09:34:44Z</time>
      </trkpt>
      <trkpt lat="48.7547" lon="-0.58072">
        <ele>205.2</ele>
        <time>2013-08-23T09:34:46Z</time>
      </trkpt>
      <trkpt lat="48.75467" lon="-0.58073">
        <ele>205.2</ele>
        <time>2013-08-23T09:34:47Z</time>
      </trkpt>
      <trkpt lat="48.75443" lon="-0.58096">
        <ele>206</ele>
        <time>2013-08-23T09:34:57Z</time>
      </trkpt>
      <trkpt lat="48.7542" lon="-0.58115">
        <ele>209.2</ele>
        <time>2013-08-23T09:35:06Z</time>
      </trkpt>
      <trkpt lat="48.75393" lon="-0.58139">
        <ele>211.6</ele>
        <time>2013-08-23T09:35:15Z</time>
      </trkpt>
      <trkpt lat="48.75372" lon="-0.58156">
        <ele>212.4</ele>
        <time>2013-08-23T09:35:21Z</time>
      </trkpt>
      <trkpt lat="48.7537" lon="-0.58163">
        <ele>212.6</ele>
        <time>2013-08-23T09:35:23Z</time>
      </trkpt>
      <trkpt lat="48.7537" lon="-0.58167">
        <ele>212.6</ele>
        <time>2013-08-23T09:35:24Z</time>
      </trkpt>
      <trkpt lat="48.75372" lon="-0.58172">
        <ele>212.8</ele>
        <time>2013-08-23T09:35:25Z</time>
      </trkpt>
      <trkpt lat="48.75374" lon="-0.58176">
        <ele>212.8</ele>
        <time>2013-08-23T09:35:26Z</time>
      </trkpt>
      <trkpt lat="48.75386" lon="-0.58201">
        <ele>213.6</ele>
        <time>2013-08-23T09:35:32Z</time>
      </trkpt>
      <trkpt lat="48.75394" lon="-0.58222">
        <ele>214</ele>
        <time>2013-08-23T09:35:37Z</time>
      </trkpt>
      <trkpt lat="48.75396" lon="-0.58226">
        <ele>214.2</ele>
        <time>2013-08-23T09:35:38Z</time>
      </trkpt>
      <trkpt lat="48.7543" lon="-0.58288">
        <ele>214.8</ele>
        <time>2013-08-23T09:35:52Z</time>
      </trkpt>
      <trkpt lat="48.75464" lon="-0.5835">
        <ele>215</ele>
        <time>2013-08-23T09:36:05Z</time>
      </trkpt>
      <trkpt lat="48.75467" lon="-0.58355">
        <ele>215</ele>
        <time>2013-08-23T09:36:06Z</time>
      </trkpt>
      <trkpt lat="48.7547" lon="-0.5836">
        <ele>215</ele>
        <time>2013-08-23T09:36:07Z</time>
      </trkpt>
      <trkpt lat="48.75495" lon="-0.58402">
        <ele>214.4</ele>
        <time>2013-08-23T09:36:15Z</time>
      </trkpt>
      <trkpt lat="48.7555" lon="-0.58468">
        <ele>212.4</ele>
        <time>2013-08-23T09:36:28Z</time>
      </trkpt>
      <trkpt lat="48.75564" lon="-0.58487">
        <ele>211.6</ele>
        <time>2013-08-23T09:36:31Z</time>
      </trkpt>
      <trkpt lat="48.75569" lon="-0.58492">
        <ele>211.4</ele>
        <time>2013-08-23T09:36:32Z</time>
      </trkpt>
      <trkpt lat="48.75574" lon="-0.58495">
        <ele>211.2</ele>
        <time>2013-08-23T09:36:33Z</time>
      </trkpt>
      <trkpt lat="48.75581" lon="-0.58497">
        <ele>211</ele>
        <time>2013-08-23T09:36:34Z</time>
      </trkpt>
      <trkpt lat="48.75588" lon="-0.58498">
        <ele>210.6</ele>
        <time>2013-08-23T09:36:35Z</time>
      </trkpt>
      <trkpt lat="48.75594" lon="-0.58498">
        <ele>210.6</ele>
        <time>2013-08-23T09:36:36Z</time>
      </trkpt>
      <trkpt lat="48.75601" lon="-0.585">
        <ele>210.4</ele>
        <time>2013-08-23T09:36:37Z</time>
      </trkpt>
      <trkpt lat="48.75637" lon="-0.58509">
        <ele>208.8</ele>
        <time>2013-08-23T09:36:42Z</time>
      </trkpt>
      <trkpt lat="48.75651" lon="-0.58515">
        <ele>208</ele>
        <time>2013-08-23T09:36:44Z</time>
      </trkpt>
      <trkpt lat="48.75657" lon="-0.58516">
        <ele>207.6</ele>
        <time>2013-08-23T09:36:45Z</time>
      </trkpt>
      <trkpt lat="48.75661" lon="-0.58515">
        <ele>207.2</ele>
        <time>2013-08-23T09:36:46Z</time>
      </trkpt>
      <trkpt lat="48.75668" lon="-0.58516">
        <ele>206.2</ele>
        <time>2013-08-23T09:36:49Z</time>
      </trkpt>
      <trkpt lat="48.75669" lon="-0.58518">
        <ele>205.8</ele>
        <time>2013-08-23T09:36:50Z</time>
      </trkpt>
      <trkpt lat="48.75669" lon="-0.5852">
        <ele>205.6</ele>
        <time>2013-08-23T09:36:51Z</time>
      </trkpt>
      <trkpt lat="48.75671" lon="-0.58522">
        <ele>205.6</ele>
        <time>2013-08-23T09:36:52Z</time>
      </trkpt>
      <trkpt lat="48.75674" lon="-0.58524">
        <ele>205.6</ele>
        <time>2013-08-23T09:36:53Z</time>
      </trkpt>
      <trkpt lat="48.75684" lon="-0.58533">
        <ele>205.6</ele>
        <time>2013-08-23T09:36:56Z</time>
      </trkpt>
      <trkpt lat="48.75688" lon="-0.58536">
        <ele>205.6</ele>
        <time>2013-08-23T09:36:57Z</time>
      </trkpt>
      <trkpt lat="48.75708" lon="-0.58547">
        <ele>206</ele>
        <time>2013-08-23T09:37:02Z</time>
      </trkpt>
      <trkpt lat="48.75757" lon="-0.58562">
        <ele>209.4</ele>
        <time>2013-08-23T09:37:13Z</time>
      </trkpt>
      <trkpt lat="48.7582" lon="-0.58584">
        <ele>210.8</ele>
        <time>2013-08-23T09:37:29Z</time>
      </trkpt>
      <trkpt lat="48.75844" lon="-0.58592">
        <ele>210.8</ele>
        <time>2013-08-23T09:37:40Z</time>
      </trkpt>
      <trkpt lat="48.75849" lon="-0.58593">
        <ele>210.8</ele>
        <time>2013-08-23T09:37:41Z</time>
      </trkpt>
      <trkpt lat="48.75915" lon="-0.58609">
        <ele>212</ele>
        <time>2013-08-23T09:37:55Z</time>
      </trkpt>
      <trkpt lat="48.75989" lon="-0.5863">
        <ele>213.4</ele>
        <time>2013-08-23T09:38:11Z</time>
      </trkpt>
      <trkpt lat="48.76015" lon="-0.58635">
        <ele>214.2</ele>
        <time>2013-08-23T09:38:16Z</time>
      </trkpt>
      <trkpt lat="48.7607" lon="-0.58662">
        <ele>215.2</ele>
        <time>2013-08-23T09:38:29Z</time>
      </trkpt>
      <trkpt lat="48.7607" lon="-0.58667">
        <ele>215.2</ele>
        <time>2013-08-23T09:38:30Z</time>
      </trkpt>
      <trkpt lat="48.7607" lon="-0.58672">
        <ele>215.4</ele>
        <time>2013-08-23T09:38:31Z</time>
      </trkpt>
      <trkpt lat="48.76068" lon="-0.58678">
        <ele>215.4</ele>
        <time>2013-08-23T09:38:32Z</time>
      </trkpt>
      <trkpt lat="48.76067" lon="-0.58685">
        <ele>215.4</ele>
        <time>2013-08-23T09:38:33Z</time>
      </trkpt>
      <trkpt lat="48.76056" lon="-0.58741">
        <ele>215.8</ele>
        <time>2013-08-23T09:38:41Z</time>
      </trkpt>
      <trkpt lat="48.76054" lon="-0.58748">
        <ele>215.8</ele>
        <time>2013-08-23T09:38:42Z</time>
      </trkpt>
      <trkpt lat="48.76051" lon="-0.58753">
        <ele>215.8</ele>
        <time>2013-08-23T09:38:43Z</time>
      </trkpt>
      <trkpt lat="48.76048" lon="-0.58758">
        <ele>215.8</ele>
        <time>2013-08-23T09:38:44Z</time>
      </trkpt>
      <trkpt lat="48.76044" lon="-0.58763">
        <ele>215.8</ele>
        <time>2013-08-23T09:38:45Z</time>
      </trkpt>
      <trkpt lat="48.7604" lon="-0.58768">
        <ele>215.8</ele>
        <time>2013-08-23T09:38:46Z</time>
      </trkpt>
      <trkpt lat="48.75983" lon="-0.58825">
        <ele>215.8</ele>
        <time>2013-08-23T09:39:00Z</time>
      </trkpt>
      <trkpt lat="48.75979" lon="-0.58829">
        <ele>215.8</ele>
        <time>2013-08-23T09:39:01Z</time>
      </trkpt>
      <trkpt lat="48.75975" lon="-0.58834">
        <ele>215.8</ele>
        <time>2013-08-23T09:39:02Z</time>
      </trkpt>
      <trkpt lat="48.75973" lon="-0.58839">
        <ele>215.8</ele>
        <time>2013-08-23T09:39:03Z</time>
      </trkpt>
      <trkpt lat="48.75971" lon="-0.58845">
        <ele>215.8</ele>
        <time>2013-08-23T09:39:04Z</time>
      </trkpt>
      <trkpt lat="48.75971" lon="-0.58852">
        <ele>215.8</ele>
        <time>2013-08-23T09:39:05Z</time>
      </trkpt>
      <trkpt lat="48.75971" lon="-0.58859">
        <ele>215.6</ele>
        <time>2013-08-23T09:39:06Z</time>
      </trkpt>
      <trkpt lat="48.75973" lon="-0.58866">
        <ele>215.6</ele>
        <time>2013-08-23T09:39:07Z</time>
      </trkpt>
      <trkpt lat="48.75977" lon="-0.58873">
        <ele>215.4</ele>
        <time>2013-08-23T09:39:08Z</time>
      </trkpt>
      <trkpt lat="48.75981" lon="-0.58879">
        <ele>215.4</ele>
        <time>2013-08-23T09:39:09Z</time>
      </trkpt>
      <trkpt lat="48.75991" lon="-0.589">
        <ele>214.8</ele>
        <time>2013-08-23T09:39:12Z</time>
      </trkpt>
      <trkpt lat="48.75994" lon="-0.58909">
        <ele>214.6</ele>
        <time>2013-08-23T09:39:13Z</time>
      </trkpt>
      <trkpt lat="48.75995" lon="-0.58919">
        <ele>214.4</ele>
        <time>2013-08-23T09:39:14Z</time>
      </trkpt>
      <trkpt lat="48.75994" lon="-0.58928">
        <ele>214.2</ele>
        <time>2013-08-23T09:39:15Z</time>
      </trkpt>
      <trkpt lat="48.75992" lon="-0.58936">
        <ele>214</ele>
        <time>2013-08-23T09:39:16Z</time>
      </trkpt>
      <trkpt lat="48.7599" lon="-0.58944">
        <ele>213.8</ele>
        <time>2013-08-23T09:39:17Z</time>
      </trkpt>
      <trkpt lat="48.75987" lon="-0.5895">
        <ele>213.8</ele>
        <time>2013-08-23T09:39:18Z</time>
      </trkpt>
      <trkpt lat="48.75932" lon="-0.59035">
        <ele>214.6</ele>
        <time>2013-08-23T09:39:34Z</time>
      </trkpt>
      <trkpt lat="48.75922" lon="-0.59047">
        <ele>215.2</ele>
        <time>2013-08-23T09:39:38Z</time>
      </trkpt>
      <trkpt lat="48.75921" lon="-0.59051">
        <ele>215.4</ele>
        <time>2013-08-23T09:39:39Z</time>
      </trkpt>
      <trkpt lat="48.75923" lon="-0.59055">
        <ele>215.6</ele>
        <time>2013-08-23T09:39:40Z</time>
      </trkpt>
      <trkpt lat="48.75925" lon="-0.59058">
        <ele>215.6</ele>
        <time>2013-08-23T09:39:41Z</time>
      </trkpt>
      <trkpt lat="48.75928" lon="-0.59062">
        <ele>215.8</ele>
        <time>2013-08-23T09:39:42Z</time>
      </trkpt>
      <trkpt lat="48.75931" lon="-0.59067">
        <ele>215.8</ele>
        <time>2013-08-23T09:39:43Z</time>
      </trkpt>
      <trkpt lat="48.75981" lon="-0.59153">
        <ele>215.8</ele>
        <time>2013-08-23T09:39:59Z</time>
      </trkpt>
      <trkpt lat="48.76003" lon="-0.59199">
        <ele>215.8</ele>
        <time>2013-08-23T09:40:06Z</time>
      </trkpt>
      <trkpt lat="48.76007" lon="-0.59215">
        <ele>216</ele>
        <time>2013-08-23T09:40:08Z</time>
      </trkpt>
      <trkpt lat="48.7601" lon="-0.59222">
        <ele>216</ele>
        <time>2013-08-23T09:40:09Z</time>
      </trkpt>
      <trkpt lat="48.7606" lon="-0.59318">
        <ele>218.2</ele>
        <time>2013-08-23T09:40:22Z</time>
      </trkpt>
      <trkpt lat="48.76114" lon="-0.59444">
        <ele>221</ele>
        <time>2013-08-23T09:40:38Z</time>
      </trkpt>
      <trkpt lat="48.76126" lon="-0.59467">
        <ele>221.2</ele>
        <time>2013-08-23T09:40:41Z</time>
      </trkpt>
      <trkpt lat="48.76165" lon="-0.59581">
        <ele>219.4</ele>
        <time>2013-08-23T09:40:54Z</time>
      </trkpt>
      <trkpt lat="48.76206" lon="-0.59675">
        <ele>218.2</ele>
        <time>2013-08-23T09:41:08Z</time>
      </trkpt>
      <trkpt lat="48.76243" lon="-0.59728">
        <ele>221.2</ele>
        <time>2013-08-23T09:41:22Z</time>
      </trkpt>
      <trkpt lat="48.76252" lon="-0.59735">
        <ele>222.6</ele>
        <time>2013-08-23T09:41:27Z</time>
      </trkpt>
      <trkpt lat="48.76253" lon="-0.59738">
        <ele>223</ele>
        <time>2013-08-23T09:41:28Z</time>
      </trkpt>
      <trkpt lat="48.76256" lon="-0.59749">
        <ele>223.6</ele>
        <time>2013-08-23T09:41:30Z</time>
      </trkpt>
      <trkpt lat="48.76258" lon="-0.59755">
        <ele>223.8</ele>
        <time>2013-08-23T09:41:31Z</time>
      </trkpt>
      <trkpt lat="48.76281" lon="-0.59827">
        <ele>227</ele>
        <time>2013-08-23T09:41:44Z</time>
      </trkpt>
      <trkpt lat="48.76282" lon="-0.59864">
        <ele>228.8</ele>
        <time>2013-08-23T09:41:53Z</time>
      </trkpt>
      <trkpt lat="48.76271" lon="-0.59959">
        <ele>230.4</ele>
        <time>2013-08-23T09:42:09Z</time>
      </trkpt>
      <trkpt lat="48.7627" lon="-0.59973">
        <ele>230.4</ele>
        <time>2013-08-23T09:42:11Z</time>
      </trkpt>
      <trkpt lat="48.7627" lon="-0.59981">
        <ele>230.4</ele>
        <time>2013-08-23T09:42:12Z</time>
      </trkpt>
      <trkpt lat="48.76269" lon="-0.59989">
        <ele>230.4</ele>
        <time>2013-08-23T09:42:13Z</time>
      </trkpt>
      <trkpt lat="48.76265" lon="-0.60013">
        <ele>230.4</ele>
        <time>2013-08-23T09:42:16Z</time>
      </trkpt>
      <trkpt lat="48.76263" lon="-0.60034">
        <ele>230.2</ele>
        <time>2013-08-23T09:42:18Z</time>
      </trkpt>
      <trkpt lat="48.76256" lon="-0.6009">
        <ele>228.6</ele>
        <time>2013-08-23T09:42:23Z</time>
      </trkpt>
      <trkpt lat="48.76246" lon="-0.60173">
        <ele>225.6</ele>
        <time>2013-08-23T09:42:29Z</time>
      </trkpt>
      <trkpt lat="48.76236" lon="-0.60252">
        <ele>222.4</ele>
        <time>2013-08-23T09:42:34Z</time>
      </trkpt>
      <trkpt lat="48.76236" lon="-0.60269">
        <ele>221.8</ele>
        <time>2013-08-23T09:42:35Z</time>
      </trkpt>
      <trkpt lat="48.76237" lon="-0.60286">
        <ele>220.8</ele>
        <time>2013-08-23T09:42:36Z</time>
      </trkpt>
      <trkpt lat="48.76239" lon="-0.60303">
        <ele>220</ele>
        <time>2013-08-23T09:42:37Z</time>
      </trkpt>
      <trkpt lat="48.7625" lon="-0.6035">
        <ele>217.2</ele>
        <time>2013-08-23T09:42:40Z</time>
      </trkpt>
      <trkpt lat="48.76257" lon="-0.60365">
        <ele>216.4</ele>
        <time>2013-08-23T09:42:41Z</time>
      </trkpt>
      <trkpt lat="48.76265" lon="-0.60376">
        <ele>215.6</ele>
        <time>2013-08-23T09:42:42Z</time>
      </trkpt>
      <trkpt lat="48.76275" lon="-0.60386">
        <ele>214.8</ele>
        <time>2013-08-23T09:42:43Z</time>
      </trkpt>
      <trkpt lat="48.76286" lon="-0.60393">
        <ele>214</ele>
        <time>2013-08-23T09:42:44Z</time>
      </trkpt>
      <trkpt lat="48.76297" lon="-0.60399">
        <ele>213.4</ele>
        <time>2013-08-23T09:42:45Z</time>
      </trkpt>
      <trkpt lat="48.76342" lon="-0.60433">
        <ele>210.2</ele>
        <time>2013-08-23T09:42:50Z</time>
      </trkpt>
      <trkpt lat="48.76393" lon="-0.60495">
        <ele>208.8</ele>
        <time>2013-08-23T09:42:59Z</time>
      </trkpt>
      <trkpt lat="48.76398" lon="-0.60499">
        <ele>209</ele>
        <time>2013-08-23T09:43:00Z</time>
      </trkpt>
      <trkpt lat="48.76415" lon="-0.60513">
        <ele>210</ele>
        <time>2013-08-23T09:43:04Z</time>
      </trkpt>
      <trkpt lat="48.76433" lon="-0.6052">
        <ele>211.4</ele>
        <time>2013-08-23T09:43:08Z</time>
      </trkpt>
      <trkpt lat="48.76438" lon="-0.60521">
        <ele>211.8</ele>
        <time>2013-08-23T09:43:09Z</time>
      </trkpt>
      <trkpt lat="48.76464" lon="-0.60524">
        <ele>214.2</ele>
        <time>2013-08-23T09:43:14Z</time>
      </trkpt>
      <trkpt lat="48.7647" lon="-0.60526">
        <ele>214.4</ele>
        <time>2013-08-23T09:43:15Z</time>
      </trkpt>
      <trkpt lat="48.76475" lon="-0.60529">
        <ele>214.6</ele>
        <time>2013-08-23T09:43:16Z</time>
      </trkpt>
      <trkpt lat="48.7648" lon="-0.60533">
        <ele>214.8</ele>
        <time>2013-08-23T09:43:17Z</time>
      </trkpt>
      <trkpt lat="48.76485" lon="-0.60538">
        <ele>215</ele>
        <time>2013-08-23T09:43:18Z</time>
      </trkpt>
      <trkpt lat="48.76491" lon="-0.60544">
        <ele>215.2</ele>
        <time>2013-08-23T09:43:19Z</time>
      </trkpt>
      <trkpt lat="48.76564" lon="-0.60625">
        <ele>215</ele>
        <time>2013-08-23T09:43:33Z</time>
      </trkpt>
      <trkpt lat="48.7665" lon="-0.60656">
        <ele>215.6</ele>
        <time>2013-08-23T09:43:47Z</time>
      </trkpt>
      <trkpt lat="48.76757" lon="-0.60677">
        <ele>217.8</ele>
        <time>2013-08-23T09:44:04Z</time>
      </trkpt>
      <trkpt lat="48.76841" lon="-0.60696">
        <ele>220.4</ele>
        <time>2013-08-23T09:44:19Z</time>
      </trkpt>
      <trkpt lat="48.76865" lon="-0.60705">
        <ele>221.6</ele>
        <time>2013-08-23T09:44:25Z</time>
      </trkpt>
      <trkpt lat="48.76866" lon="-0.6071">
        <ele>221.6</ele>
        <time>2013-08-23T09:44:26Z</time>
      </trkpt>
      <trkpt lat="48.76867" lon="-0.60716">
        <ele>221.8</ele>
        <time>2013-08-23T09:44:27Z</time>
      </trkpt>
      <trkpt lat="48.76867" lon="-0.60722">
        <ele>222</ele>
        <time>2013-08-23T09:44:28Z</time>
      </trkpt>
      <trkpt lat="48.76866" lon="-0.6073">
        <ele>222</ele>
        <time>2013-08-23T09:44:29Z</time>
      </trkpt>
      <trkpt lat="48.76866" lon="-0.60737">
        <ele>222.2</ele>
        <time>2013-08-23T09:44:30Z</time>
      </trkpt>
      <trkpt lat="48.76865" lon="-0.60745">
        <ele>222.4</ele>
        <time>2013-08-23T09:44:31Z</time>
      </trkpt>
      <trkpt lat="48.76857" lon="-0.6087">
        <ele>223.6</ele>
        <time>2013-08-23T09:44:45Z</time>
      </trkpt>
      <trkpt lat="48.76856" lon="-0.60898">
        <ele>223.8</ele>
        <time>2013-08-23T09:44:48Z</time>
      </trkpt>
      <trkpt lat="48.76853" lon="-0.61038">
        <ele>226.6</ele>
        <time>2013-08-23T09:45:03Z</time>
      </trkpt>
      <trkpt lat="48.76852" lon="-0.61048">
        <ele>227</ele>
        <time>2013-08-23T09:45:04Z</time>
      </trkpt>
      <trkpt lat="48.76846" lon="-0.61093">
        <ele>228.2</ele>
        <time>2013-08-23T09:45:09Z</time>
      </trkpt>
      <trkpt lat="48.76845" lon="-0.61101">
        <ele>228.4</ele>
        <time>2013-08-23T09:45:10Z</time>
      </trkpt>
      <trkpt lat="48.76835" lon="-0.61182">
        <ele>232</ele>
        <time>2013-08-23T09:45:21Z</time>
      </trkpt>
      <trkpt lat="48.76827" lon="-0.61243">
        <ele>233.6</ele>
        <time>2013-08-23T09:45:29Z</time>
      </trkpt>
      <trkpt lat="48.76799" lon="-0.61337">
        <ele>234.8</ele>
        <time>2013-08-23T09:45:41Z</time>
      </trkpt>
      <trkpt lat="48.76795" lon="-0.61353">
        <ele>235</ele>
        <time>2013-08-23T09:45:43Z</time>
      </trkpt>
      <trkpt lat="48.76792" lon="-0.61361">
        <ele>235.2</ele>
        <time>2013-08-23T09:45:44Z</time>
      </trkpt>
      <trkpt lat="48.76786" lon="-0.61384">
        <ele>235.6</ele>
        <time>2013-08-23T09:45:47Z</time>
      </trkpt>
      <trkpt lat="48.76782" lon="-0.614">
        <ele>236</ele>
        <time>2013-08-23T09:45:49Z</time>
      </trkpt>
      <trkpt lat="48.76779" lon="-0.61411">
        <ele>236.2</ele>
        <time>2013-08-23T09:45:50Z</time>
      </trkpt>
      <trkpt lat="48.76738" lon="-0.61524">
        <ele>236.2</ele>
        <time>2013-08-23T09:46:03Z</time>
      </trkpt>
      <trkpt lat="48.76716" lon="-0.61596">
        <ele>235.4</ele>
        <time>2013-08-23T09:46:11Z</time>
      </trkpt>
      <trkpt lat="48.76708" lon="-0.61622">
        <ele>235.2</ele>
        <time>2013-08-23T09:46:14Z</time>
      </trkpt>
      <trkpt lat="48.76674" lon="-0.61742">
        <ele>234.2</ele>
        <time>2013-08-23T09:46:27Z</time>
      </trkpt>
      <trkpt lat="48.76654" lon="-0.61814">
        <ele>234</ele>
        <time>2013-08-23T09:46:37Z</time>
      </trkpt>
      <trkpt lat="48.76655" lon="-0.61816">
        <ele>234</ele>
        <time>2013-08-23T09:46:38Z</time>
      </trkpt>
      <trkpt lat="48.76656" lon="-0.61818">
        <ele>234</ele>
        <time>2013-08-23T09:46:39Z</time>
      </trkpt>
      <trkpt lat="48.76658" lon="-0.6182">
        <ele>234.2</ele>
        <time>2013-08-23T09:46:40Z</time>
      </trkpt>
      <trkpt lat="48.76687" lon="-0.61851">
        <ele>235.2</ele>
        <time>2013-08-23T09:46:47Z</time>
      </trkpt>
      <trkpt lat="48.76704" lon="-0.61852">
        <ele>235.6</ele>
        <time>2013-08-23T09:46:51Z</time>
      </trkpt>
      <trkpt lat="48.76714" lon="-0.61846">
        <ele>235.8</ele>
        <time>2013-08-23T09:46:53Z</time>
      </trkpt>
      <trkpt lat="48.76759" lon="-0.61835">
        <ele>236</ele>
        <time>2013-08-23T09:47:00Z</time>
      </trkpt>
      <trkpt lat="48.76787" lon="-0.61835">
        <ele>236</ele>
        <time>2013-08-23T09:47:05Z</time>
      </trkpt>
      <trkpt lat="48.76845" lon="-0.61848">
        <ele>235.8</ele>
        <time>2013-08-23T09:47:16Z</time>
      </trkpt>
      <trkpt lat="48.7685" lon="-0.61849">
        <ele>235.8</ele>
        <time>2013-08-23T09:47:17Z</time>
      </trkpt>
      <trkpt lat="48.76872" lon="-0.61855">
        <ele>235.6</ele>
        <time>2013-08-23T09:47:21Z</time>
      </trkpt>
      <trkpt lat="48.76902" lon="-0.61865">
        <ele>235.4</ele>
        <time>2013-08-23T09:47:26Z</time>
      </trkpt>
      <trkpt lat="48.7694" lon="-0.61889">
        <ele>234.2</ele>
        <time>2013-08-23T09:47:34Z</time>
      </trkpt>
      <trkpt lat="48.7695" lon="-0.61894">
        <ele>233.6</ele>
        <time>2013-08-23T09:47:36Z</time>
      </trkpt>
      <trkpt lat="48.76971" lon="-0.61902">
        <ele>232</ele>
        <time>2013-08-23T09:47:40Z</time>
      </trkpt>
      <trkpt lat="48.77013" lon="-0.61912">
        <ele>229.4</ele>
        <time>2013-08-23T09:47:47Z</time>
      </trkpt>
      <trkpt lat="48.77084" lon="-0.61911">
        <ele>226.4</ele>
        <time>2013-08-23T09:47:59Z</time>
      </trkpt>
      <trkpt lat="48.77104" lon="-0.61909">
        <ele>225.8</ele>
        <time>2013-08-23T09:48:03Z</time>
      </trkpt>
      <trkpt lat="48.77115" lon="-0.61906">
        <ele>225.6</ele>
        <time>2013-08-23T09:48:05Z</time>
      </trkpt>
      <trkpt lat="48.77152" lon="-0.61903">
        <ele>224.6</ele>
        <time>2013-08-23T09:48:12Z</time>
      </trkpt>
      <trkpt lat="48.77219" lon="-0.61908">
        <ele>222.6</ele>
        <time>2013-08-23T09:48:24Z</time>
      </trkpt>
      <trkpt lat="48.77236" lon="-0.61907">
        <ele>221.8</ele>
        <time>2013-08-23T09:48:27Z</time>
      </trkpt>
      <trkpt lat="48.77314" lon="-0.61877">
        <ele>220</ele>
        <time>2013-08-23T09:48:40Z</time>
      </trkpt>
      <trkpt lat="48.77348" lon="-0.6186">
        <ele>219.2</ele>
        <time>2013-08-23T09:48:46Z</time>
      </trkpt>
      <trkpt lat="48.77407" lon="-0.61819">
        <ele>217.6</ele>
        <time>2013-08-23T09:48:57Z</time>
      </trkpt>
      <trkpt lat="48.77422" lon="-0.61805">
        <ele>217.6</ele>
        <time>2013-08-23T09:49:00Z</time>
      </trkpt>
      <trkpt lat="48.77439" lon="-0.61793">
        <ele>217.4</ele>
        <time>2013-08-23T09:49:03Z</time>
      </trkpt>
      <trkpt lat="48.77514" lon="-0.61724">
        <ele>216</ele>
        <time>2013-08-23T09:49:17Z</time>
      </trkpt>
      <trkpt lat="48.77582" lon="-0.61662">
        <ele>214.4</ele>
        <time>2013-08-23T09:49:31Z</time>
      </trkpt>
      <trkpt lat="48.77598" lon="-0.61651">
        <ele>214</ele>
        <time>2013-08-23T09:49:35Z</time>
      </trkpt>
      <trkpt lat="48.77671" lon="-0.61633">
        <ele>210.6</ele>
        <time>2013-08-23T09:49:49Z</time>
      </trkpt>
      <trkpt lat="48.77691" lon="-0.61627">
        <ele>209.2</ele>
        <time>2013-08-23T09:49:53Z</time>
      </trkpt>
      <trkpt lat="48.77696" lon="-0.61626">
        <ele>208.8</ele>
        <time>2013-08-23T09:49:54Z</time>
      </trkpt>
      <trkpt lat="48.77747" lon="-0.61615">
        <ele>205.8</ele>
        <time>2013-08-23T09:50:05Z</time>
      </trkpt>
      <trkpt lat="48.77766" lon="-0.6161">
        <ele>203.2</ele>
        <time>2013-08-23T09:50:17Z</time>
      </trkpt>
      <trkpt lat="48.77772" lon="-0.6161">
        <ele>202.8</ele>
        <time>2013-08-23T09:50:29Z</time>
      </trkpt>
      <trkpt lat="48.77809" lon="-0.61647">
        <ele>201.4</ele>
        <time>2013-08-23T09:50:39Z</time>
      </trkpt>
      <trkpt lat="48.77859" lon="-0.61707">
        <ele>198.2</ele>
        <time>2013-08-23T09:50:47Z</time>
      </trkpt>
      <trkpt lat="48.77895" lon="-0.61744">
        <ele>195.4</ele>
        <time>2013-08-23T09:50:52Z</time>
      </trkpt>
      <trkpt lat="48.77902" lon="-0.61748">
        <ele>194.6</ele>
        <time>2013-08-23T09:50:53Z</time>
      </trkpt>
      <trkpt lat="48.7791" lon="-0.61751">
        <ele>194</ele>
        <time>2013-08-23T09:50:54Z</time>
      </trkpt>
      <trkpt lat="48.77918" lon="-0.61752">
        <ele>193.4</ele>
        <time>2013-08-23T09:50:55Z</time>
      </trkpt>
      <trkpt lat="48.77925" lon="-0.61753">
        <ele>192.8</ele>
        <time>2013-08-23T09:50:56Z</time>
      </trkpt>
      <trkpt lat="48.77931" lon="-0.61753">
        <ele>192</ele>
        <time>2013-08-23T09:50:57Z</time>
      </trkpt>
      <trkpt lat="48.77937" lon="-0.61753">
        <ele>191.4</ele>
        <time>2013-08-23T09:50:58Z</time>
      </trkpt>
      <trkpt lat="48.77959" lon="-0.61752">
        <ele>188.4</ele>
        <time>2013-08-23T09:51:04Z</time>
      </trkpt>
      <trkpt lat="48.77996" lon="-0.61748">
        <ele>187</ele>
        <time>2013-08-23T09:51:10Z</time>
      </trkpt>
      <trkpt lat="48.78002" lon="-0.61746">
        <ele>186.8</ele>
        <time>2013-08-23T09:51:11Z</time>
      </trkpt>
      <trkpt lat="48.78008" lon="-0.61742">
        <ele>186.4</ele>
        <time>2013-08-23T09:51:12Z</time>
      </trkpt>
      <trkpt lat="48.78014" lon="-0.61736">
        <ele>186.2</ele>
        <time>2013-08-23T09:51:13Z</time>
      </trkpt>
      <trkpt lat="48.7802" lon="-0.61729">
        <ele>185.8</ele>
        <time>2013-08-23T09:51:14Z</time>
      </trkpt>
      <trkpt lat="48.78025" lon="-0.61721">
        <ele>185.4</ele>
        <time>2013-08-23T09:51:15Z</time>
      </trkpt>
      <trkpt lat="48.7803" lon="-0.61711">
        <ele>185.2</ele>
        <time>2013-08-23T09:51:16Z</time>
      </trkpt>
      <trkpt lat="48.78034" lon="-0.61702">
        <ele>184.8</ele>
        <time>2013-08-23T09:51:17Z</time>
      </trkpt>
      <trkpt lat="48.78038" lon="-0.61691">
        <ele>184.4</ele>
        <time>2013-08-23T09:51:18Z</time>
      </trkpt>
      <trkpt lat="48.78041" lon="-0.6168">
        <ele>183.8</ele>
        <time>2013-08-23T09:51:19Z</time>
      </trkpt>
      <trkpt lat="48.78044" lon="-0.61669">
        <ele>183.4</ele>
        <time>2013-08-23T09:51:20Z</time>
      </trkpt>
      <trkpt lat="48.7806" lon="-0.61613">
        <ele>181.2</ele>
        <time>2013-08-23T09:51:25Z</time>
      </trkpt>
      <trkpt lat="48.78066" lon="-0.61603">
        <ele>180.4</ele>
        <time>2013-08-23T09:51:26Z</time>
      </trkpt>
      <trkpt lat="48.78073" lon="-0.61593">
        <ele>179.8</ele>
        <time>2013-08-23T09:51:27Z</time>
      </trkpt>
      <trkpt lat="48.78081" lon="-0.61585">
        <ele>179.4</ele>
        <time>2013-08-23T09:51:28Z</time>
      </trkpt>
      <trkpt lat="48.78089" lon="-0.61577">
        <ele>178.8</ele>
        <time>2013-08-23T09:51:29Z</time>
      </trkpt>
      <trkpt lat="48.78099" lon="-0.61571">
        <ele>178.2</ele>
        <time>2013-08-23T09:51:30Z</time>
      </trkpt>
      <trkpt lat="48.78108" lon="-0.61566">
        <ele>177.4</ele>
        <time>2013-08-23T09:51:31Z</time>
      </trkpt>
      <trkpt lat="48.78118" lon="-0.61562">
        <ele>176.8</ele>
        <time>2013-08-23T09:51:32Z</time>
      </trkpt>
      <trkpt lat="48.78128" lon="-0.61559">
        <ele>176.2</ele>
        <time>2013-08-23T09:51:33Z</time>
      </trkpt>
      <trkpt lat="48.78165" lon="-0.61547">
        <ele>172.8</ele>
        <time>2013-08-23T09:51:37Z</time>
      </trkpt>
      <trkpt lat="48.78185" lon="-0.61541">
        <ele>169.6</ele>
        <time>2013-08-23T09:51:41Z</time>
      </trkpt>
      <trkpt lat="48.78191" lon="-0.61542">
        <ele>168.6</ele>
        <time>2013-08-23T09:51:43Z</time>
      </trkpt>
      <trkpt lat="48.78193" lon="-0.61546">
        <ele>168.2</ele>
        <time>2013-08-23T09:51:44Z</time>
      </trkpt>
      <trkpt lat="48.78195" lon="-0.61551">
        <ele>167.8</ele>
        <time>2013-08-23T09:51:45Z</time>
      </trkpt>
      <trkpt lat="48.78196" lon="-0.61557">
        <ele>167.4</ele>
        <time>2013-08-23T09:51:46Z</time>
      </trkpt>
      <trkpt lat="48.78196" lon="-0.61565">
        <ele>167.2</ele>
        <time>2013-08-23T09:51:47Z</time>
      </trkpt>
      <trkpt lat="48.78201" lon="-0.61628">
        <ele>165.6</ele>
        <time>2013-08-23T09:51:54Z</time>
      </trkpt>
      <trkpt lat="48.78196" lon="-0.61788">
        <ele>164.2</ele>
        <time>2013-08-23T09:52:10Z</time>
      </trkpt>
      <trkpt lat="48.78188" lon="-0.61863">
        <ele>163.8</ele>
        <time>2013-08-23T09:52:18Z</time>
      </trkpt>
      <trkpt lat="48.78185" lon="-0.61871">
        <ele>163.8</ele>
        <time>2013-08-23T09:52:19Z</time>
      </trkpt>
      <trkpt lat="48.78183" lon="-0.61879">
        <ele>163.8</ele>
        <time>2013-08-23T09:52:20Z</time>
      </trkpt>
      <trkpt lat="48.78179" lon="-0.61887">
        <ele>163.8</ele>
        <time>2013-08-23T09:52:21Z</time>
      </trkpt>
      <trkpt lat="48.78176" lon="-0.61894">
        <ele>163.8</ele>
        <time>2013-08-23T09:52:22Z</time>
      </trkpt>
      <trkpt lat="48.78171" lon="-0.619">
        <ele>164</ele>
        <time>2013-08-23T09:52:23Z</time>
      </trkpt>
      <trkpt lat="48.78166" lon="-0.61905">
        <ele>164</ele>
        <time>2013-08-23T09:52:24Z</time>
      </trkpt>
      <trkpt lat="48.78122" lon="-0.61951">
        <ele>164.8</ele>
        <time>2013-08-23T09:52:33Z</time>
      </trkpt>
      <trkpt lat="48.78117" lon="-0.61957">
        <ele>164.8</ele>
        <time>2013-08-23T09:52:34Z</time>
      </trkpt>
      <trkpt lat="48.78114" lon="-0.61965">
        <ele>165</ele>
        <time>2013-08-23T09:52:35Z</time>
      </trkpt>
      <trkpt lat="48.78112" lon="-0.61974">
        <ele>165</ele>
        <time>2013-08-23T09:52:36Z</time>
      </trkpt>
      <trkpt lat="48.78112" lon="-0.61984">
        <ele>165.2</ele>
        <time>2013-08-23T09:52:37Z</time>
      </trkpt>
      <trkpt lat="48.78113" lon="-0.61994">
        <ele>165.2</ele>
        <time>2013-08-23T09:52:38Z</time>
      </trkpt>
      <trkpt lat="48.78115" lon="-0.62003">
        <ele>165.2</ele>
        <time>2013-08-23T09:52:39Z</time>
      </trkpt>
      <trkpt lat="48.78118" lon="-0.62012">
        <ele>165.2</ele>
        <time>2013-08-23T09:52:40Z</time>
      </trkpt>
      <trkpt lat="48.78135" lon="-0.62075">
        <ele>164.8</ele>
        <time>2013-08-23T09:52:47Z</time>
      </trkpt>
      <trkpt lat="48.78192" lon="-0.62167">
        <ele>164.2</ele>
        <time>2013-08-23T09:53:00Z</time>
      </trkpt>
      <trkpt lat="48.78212" lon="-0.62214">
        <ele>164.6</ele>
        <time>2013-08-23T09:53:06Z</time>
      </trkpt>
      <trkpt lat="48.78217" lon="-0.62228">
        <ele>165</ele>
        <time>2013-08-23T09:53:08Z</time>
      </trkpt>
      <trkpt lat="48.78219" lon="-0.62235">
        <ele>165.4</ele>
        <time>2013-08-23T09:53:09Z</time>
      </trkpt>
      <trkpt lat="48.7822" lon="-0.62243">
        <ele>165.6</ele>
        <time>2013-08-23T09:53:10Z</time>
      </trkpt>
      <trkpt lat="48.78218" lon="-0.62252">
        <ele>165.8</ele>
        <time>2013-08-23T09:53:11Z</time>
      </trkpt>
      <trkpt lat="48.78216" lon="-0.62259">
        <ele>166</ele>
        <time>2013-08-23T09:53:12Z</time>
      </trkpt>
      <trkpt lat="48.78211" lon="-0.62264">
        <ele>166.4</ele>
        <time>2013-08-23T09:53:13Z</time>
      </trkpt>
      <trkpt lat="48.78206" lon="-0.62268">
        <ele>166.6</ele>
        <time>2013-08-23T09:53:14Z</time>
      </trkpt>
      <trkpt lat="48.782" lon="-0.62271">
        <ele>166.8</ele>
        <time>2013-08-23T09:53:15Z</time>
      </trkpt>
      <trkpt lat="48.78153" lon="-0.62313">
        <ele>170</ele>
        <time>2013-08-23T09:53:24Z</time>
      </trkpt>
      <trkpt lat="48.78118" lon="-0.62352">
        <ele>173.4</ele>
        <time>2013-08-23T09:53:32Z</time>
      </trkpt>
      <trkpt lat="48.78089" lon="-0.62386">
        <ele>176.6</ele>
        <time>2013-08-23T09:53:39Z</time>
      </trkpt>
      <trkpt lat="48.78084" lon="-0.62389">
        <ele>177</ele>
        <time>2013-08-23T09:53:40Z</time>
      </trkpt>
      <trkpt lat="48.7808" lon="-0.62391">
        <ele>177.6</ele>
        <time>2013-08-23T09:53:41Z</time>
      </trkpt>
      <trkpt lat="48.78074" lon="-0.62392">
        <ele>178</ele>
        <time>2013-08-23T09:53:42Z</time>
      </trkpt>
      <trkpt lat="48.78069" lon="-0.62392">
        <ele>178.4</ele>
        <time>2013-08-23T09:53:43Z</time>
      </trkpt>
      <trkpt lat="48.78064" lon="-0.62391">
        <ele>178.8</ele>
        <time>2013-08-23T09:53:44Z</time>
      </trkpt>
      <trkpt lat="48.78058" lon="-0.6239">
        <ele>179.2</ele>
        <time>2013-08-23T09:53:45Z</time>
      </trkpt>
      <trkpt lat="48.78054" lon="-0.62388">
        <ele>179.6</ele>
        <time>2013-08-23T09:53:46Z</time>
      </trkpt>
      <trkpt lat="48.78049" lon="-0.62386">
        <ele>180</ele>
        <time>2013-08-23T09:53:47Z</time>
      </trkpt>
      <trkpt lat="48.78044" lon="-0.62384">
        <ele>180.6</ele>
        <time>2013-08-23T09:53:48Z</time>
      </trkpt>
      <trkpt lat="48.7804" lon="-0.62381">
        <ele>181</ele>
        <time>2013-08-23T09:53:49Z</time>
      </trkpt>
      <trkpt lat="48.78036" lon="-0.62377">
        <ele>181.6</ele>
        <time>2013-08-23T09:53:50Z</time>
      </trkpt>
      <trkpt lat="48.78012" lon="-0.62353">
        <ele>184.8</ele>
        <time>2013-08-23T09:53:57Z</time>
      </trkpt>
      <trkpt lat="48.78008" lon="-0.62351">
        <ele>185.2</ele>
        <time>2013-08-23T09:53:58Z</time>
      </trkpt>
      <trkpt lat="48.78004" lon="-0.6235">
        <ele>186.2</ele>
        <time>2013-08-23T09:53:59Z</time>
      </trkpt>
      <trkpt lat="48.78" lon="-0.6235">
        <ele>186.6</ele>
        <time>2013-08-23T09:54:00Z</time>
      </trkpt>
      <trkpt lat="48.77996" lon="-0.62352">
        <ele>187</ele>
        <time>2013-08-23T09:54:01Z</time>
      </trkpt>
      <trkpt lat="48.77992" lon="-0.62353">
        <ele>187.4</ele>
        <time>2013-08-23T09:54:02Z</time>
      </trkpt>
      <trkpt lat="48.77981" lon="-0.62358">
        <ele>188.4</ele>
        <time>2013-08-23T09:54:06Z</time>
      </trkpt>
      <trkpt lat="48.7798" lon="-0.6236">
        <ele>188.6</ele>
        <time>2013-08-23T09:54:07Z</time>
      </trkpt>
      <trkpt lat="48.7798" lon="-0.62364">
        <ele>188.8</ele>
        <time>2013-08-23T09:54:08Z</time>
      </trkpt>
      <trkpt lat="48.77981" lon="-0.62368">
        <ele>188.8</ele>
        <time>2013-08-23T09:54:09Z</time>
      </trkpt>
      <trkpt lat="48.77983" lon="-0.62374">
        <ele>189</ele>
        <time>2013-08-23T09:54:10Z</time>
      </trkpt>
      <trkpt lat="48.77996" lon="-0.62437">
        <ele>189</ele>
        <time>2013-08-23T09:54:23Z</time>
      </trkpt>
      <trkpt lat="48.77997" lon="-0.62446">
        <ele>189.2</ele>
        <time>2013-08-23T09:54:31Z</time>
      </trkpt>
      <trkpt lat="48.77995" lon="-0.62435">
        <ele>188.8</ele>
        <time>2013-08-23T09:54:53Z</time>
      </trkpt>
      <trkpt lat="48.77985" lon="-0.62368">
        <ele>189</ele>
        <time>2013-08-23T09:55:06Z</time>
      </trkpt>
      <trkpt lat="48.7798" lon="-0.62363">
        <ele>189.2</ele>
        <time>2013-08-23T09:55:11Z</time>
      </trkpt>
      <trkpt lat="48.77978" lon="-0.62362">
        <ele>189.6</ele>
        <time>2013-08-23T09:55:16Z</time>
      </trkpt>
      <trkpt lat="48.77979" lon="-0.62363">
        <ele>189.6</ele>
        <time>2013-08-23T09:55:30Z</time>
      </trkpt>
      <trkpt lat="48.7798" lon="-0.62363">
        <ele>189.6</ele>
        <time>2013-08-23T09:55:31Z</time>
      </trkpt>
      <trkpt lat="48.77982" lon="-0.62364">
        <ele>189.6</ele>
        <time>2013-08-23T09:55:32Z</time>
      </trkpt>
      <trkpt lat="48.77984" lon="-0.62365">
        <ele>189.6</ele>
        <time>2013-08-23T09:55:33Z</time>
      </trkpt>
      <trkpt lat="48.77985" lon="-0.62368">
        <ele>189.6</ele>
        <time>2013-08-23T09:55:34Z</time>
      </trkpt>
      <trkpt lat="48.77986" lon="-0.62373">
        <ele>189.6</ele>
        <time>2013-08-23T09:55:35Z</time>
      </trkpt>
      <trkpt lat="48.77987" lon="-0.62377">
        <ele>189.6</ele>
        <time>2013-08-23T09:55:36Z</time>
      </trkpt>
      <trkpt lat="48.77987" lon="-0.62382">
        <ele>189.4</ele>
        <time>2013-08-23T09:55:37Z</time>
      </trkpt>
      <trkpt lat="48.77988" lon="-0.62386">
        <ele>189.2</ele>
        <time>2013-08-23T09:55:38Z</time>
      </trkpt>
      <trkpt lat="48.77989" lon="-0.62391">
        <ele>189.2</ele>
        <time>2013-08-23T09:55:39Z</time>
      </trkpt>
      <trkpt lat="48.78006" lon="-0.6247">
        <ele>189</ele>
        <time>2013-08-23T09:55:54Z</time>
      </trkpt>
      <trkpt lat="48.78009" lon="-0.62482">
        <ele>188.8</ele>
        <time>2013-08-23T09:55:56Z</time>
      </trkpt>
      <trkpt lat="48.78018" lon="-0.62525">
        <ele>187.4</ele>
        <time>2013-08-23T09:56:07Z</time>
      </trkpt>
      <trkpt lat="48.78018" lon="-0.62525">
        <ele>187.2</ele>
        <time>2013-08-23T09:56:08Z</time>
      </trkpt>
      <trkpt lat="48.78023" lon="-0.62537">
        <ele>187.2</ele>
        <time>2013-08-23T09:58:26Z</time>
      </trkpt>
      <trkpt lat="48.78045" lon="-0.62619">
        <ele>184</ele>
        <time>2013-08-23T09:58:41Z</time>
      </trkpt>
      <trkpt lat="48.78052" lon="-0.62655">
        <ele>181.8</ele>
        <time>2013-08-23T09:58:47Z</time>
      </trkpt>
      <trkpt lat="48.78083" lon="-0.62746">
        <ele>181.8</ele>
        <time>2013-08-23T09:59:05Z</time>
      </trkpt>
      <trkpt lat="48.78098" lon="-0.62788">
        <ele>185</ele>
        <time>2013-08-23T09:59:16Z</time>
      </trkpt>
      <trkpt lat="48.78106" lon="-0.62821">
        <ele>188</ele>
        <time>2013-08-23T09:59:24Z</time>
      </trkpt>
      <trkpt lat="48.78124" lon="-0.62881">
        <ele>190.2</ele>
        <time>2013-08-23T09:59:38Z</time>
      </trkpt>
      <trkpt lat="48.78148" lon="-0.62951">
        <ele>190.4</ele>
        <time>2013-08-23T09:59:54Z</time>
      </trkpt>
      <trkpt lat="48.78148" lon="-0.62954">
        <ele>190.4</ele>
        <time>2013-08-23T09:59:55Z</time>
      </trkpt>
      <trkpt lat="48.78123" lon="-0.62971">
        <ele>190.8</ele>
        <time>2013-08-23T10:00:05Z</time>
      </trkpt>
      <trkpt lat="48.78118" lon="-0.62977">
        <ele>191.2</ele>
        <time>2013-08-23T10:00:08Z</time>
      </trkpt>
      <trkpt lat="48.78117" lon="-0.62988">
        <ele>191.6</ele>
        <time>2013-08-23T10:00:12Z</time>
      </trkpt>
      <trkpt lat="48.7811" lon="-0.63047">
        <ele>191</ele>
        <time>2013-08-23T10:00:24Z</time>
      </trkpt>
      <trkpt lat="48.78108" lon="-0.63068">
        <ele>190.4</ele>
        <time>2013-08-23T10:00:27Z</time>
      </trkpt>
      <trkpt lat="48.78102" lon="-0.63094">
        <ele>189</ele>
        <time>2013-08-23T10:00:31Z</time>
      </trkpt>
      <trkpt lat="48.78082" lon="-0.63139">
        <ele>185.6</ele>
        <time>2013-08-23T10:00:40Z</time>
      </trkpt>
      <trkpt lat="48.78076" lon="-0.63155">
        <ele>185</ele>
        <time>2013-08-23T10:00:43Z</time>
      </trkpt>
      <trkpt lat="48.78072" lon="-0.6323">
        <ele>183.2</ele>
        <time>2013-08-23T10:00:53Z</time>
      </trkpt>
      <trkpt lat="48.78098" lon="-0.63286">
        <ele>182.4</ele>
        <time>2013-08-23T10:01:03Z</time>
      </trkpt>
      <trkpt lat="48.7812" lon="-0.63342">
        <ele>184.8</ele>
        <time>2013-08-23T10:01:17Z</time>
      </trkpt>
      <trkpt lat="48.78131" lon="-0.6338">
        <ele>186.2</ele>
        <time>2013-08-23T10:01:27Z</time>
      </trkpt>
      <trkpt lat="48.78157" lon="-0.63452">
        <ele>188</ele>
        <time>2013-08-23T10:01:42Z</time>
      </trkpt>
      <trkpt lat="48.78175" lon="-0.63508">
        <ele>188</ele>
        <time>2013-08-23T10:01:53Z</time>
      </trkpt>
      <trkpt lat="48.7817" lon="-0.63546">
        <ele>187.8</ele>
        <time>2013-08-23T10:02:03Z</time>
      </trkpt>
      <trkpt lat="48.78153" lon="-0.63569">
        <ele>188.8</ele>
        <time>2013-08-23T10:02:11Z</time>
      </trkpt>
      <trkpt lat="48.78154" lon="-0.63573">
        <ele>189</ele>
        <time>2013-08-23T10:02:12Z</time>
      </trkpt>
      <trkpt lat="48.78155" lon="-0.63578">
        <ele>189.2</ele>
        <time>2013-08-23T10:02:13Z</time>
      </trkpt>
      <trkpt lat="48.78172" lon="-0.63632">
        <ele>189</ele>
        <time>2013-08-23T10:02:23Z</time>
      </trkpt>
      <trkpt lat="48.78193" lon="-0.63697">
        <ele>186.8</ele>
        <time>2013-08-23T10:02:31Z</time>
      </trkpt>
      <trkpt lat="48.78197" lon="-0.63722">
        <ele>186.4</ele>
        <time>2013-08-23T10:02:34Z</time>
      </trkpt>
      <trkpt lat="48.78221" lon="-0.63781">
        <ele>187.4</ele>
        <time>2013-08-23T10:02:45Z</time>
      </trkpt>
      <trkpt lat="48.78225" lon="-0.63788">
        <ele>187.6</ele>
        <time>2013-08-23T10:02:47Z</time>
      </trkpt>
      <trkpt lat="48.78245" lon="-0.63823">
        <ele>188.2</ele>
        <time>2013-08-23T10:03:00Z</time>
      </trkpt>
      <trkpt lat="48.78276" lon="-0.63871">
        <ele>185.6</ele>
        <time>2013-08-23T10:03:15Z</time>
      </trkpt>
      <trkpt lat="48.78304" lon="-0.63904">
        <ele>183.2</ele>
        <time>2013-08-23T10:03:25Z</time>
      </trkpt>
      <trkpt lat="48.78343" lon="-0.63922">
        <ele>180.4</ele>
        <time>2013-08-23T10:03:33Z</time>
      </trkpt>
      <trkpt lat="48.78397" lon="-0.63951">
        <ele>177.2</ele>
        <time>2013-08-23T10:03:45Z</time>
      </trkpt>
      <trkpt lat="48.7841" lon="-0.63941">
        <ele>176.6</ele>
        <time>2013-08-23T10:03:49Z</time>
      </trkpt>
      <trkpt lat="48.78411" lon="-0.63934">
        <ele>176.4</ele>
        <time>2013-08-23T10:03:50Z</time>
      </trkpt>
      <trkpt lat="48.78413" lon="-0.63922">
        <ele>176.2</ele>
        <time>2013-08-23T10:03:52Z</time>
      </trkpt>
      <trkpt lat="48.78442" lon="-0.63846">
        <ele>174.4</ele>
        <time>2013-08-23T10:04:07Z</time>
      </trkpt>
      <trkpt lat="48.78472" lon="-0.63814">
        <ele>173.2</ele>
        <time>2013-08-23T10:04:19Z</time>
      </trkpt>
      <trkpt lat="48.78489" lon="-0.63799">
        <ele>172.6</ele>
        <time>2013-08-23T10:04:26Z</time>
      </trkpt>
      <trkpt lat="48.78489" lon="-0.63797">
        <ele>172.4</ele>
        <time>2013-08-23T10:04:27Z</time>
      </trkpt>
      <trkpt lat="48.7849" lon="-0.63795">
        <ele>172.4</ele>
        <time>2013-08-23T10:04:28Z</time>
      </trkpt>
      <trkpt lat="48.7849" lon="-0.63793">
        <ele>172.4</ele>
        <time>2013-08-23T10:04:29Z</time>
      </trkpt>
      <trkpt lat="48.78492" lon="-0.63793">
        <ele>172.4</ele>
        <time>2013-08-23T10:04:30Z</time>
      </trkpt>
      <trkpt lat="48.78493" lon="-0.63795">
        <ele>172.4</ele>
        <time>2013-08-23T10:04:31Z</time>
      </trkpt>
      <trkpt lat="48.78494" lon="-0.638">
        <ele>172.4</ele>
        <time>2013-08-23T10:04:32Z</time>
      </trkpt>
      <trkpt lat="48.78495" lon="-0.63805">
        <ele>172.4</ele>
        <time>2013-08-23T10:04:33Z</time>
      </trkpt>
      <trkpt lat="48.78496" lon="-0.63811">
        <ele>172.4</ele>
        <time>2013-08-23T10:04:34Z</time>
      </trkpt>
      <trkpt lat="48.7852" lon="-0.63896">
        <ele>174.8</ele>
        <time>2013-08-23T10:04:49Z</time>
      </trkpt>
      <trkpt lat="48.78542" lon="-0.63975">
        <ele>178</ele>
        <time>2013-08-23T10:05:03Z</time>
      </trkpt>
      <trkpt lat="48.78563" lon="-0.64037">
        <ele>181.2</ele>
        <time>2013-08-23T10:05:15Z</time>
      </trkpt>
      <trkpt lat="48.78576" lon="-0.64068">
        <ele>182.6</ele>
        <time>2013-08-23T10:05:21Z</time>
      </trkpt>
      <trkpt lat="48.78599" lon="-0.64124">
        <ele>185.6</ele>
        <time>2013-08-23T10:05:32Z</time>
      </trkpt>
      <trkpt lat="48.78617" lon="-0.64149">
        <ele>187.2</ele>
        <time>2013-08-23T10:05:39Z</time>
      </trkpt>
      <trkpt lat="48.78621" lon="-0.6415">
        <ele>187.4</ele>
        <time>2013-08-23T10:05:40Z</time>
      </trkpt>
      <trkpt lat="48.78626" lon="-0.64149">
        <ele>187.6</ele>
        <time>2013-08-23T10:05:41Z</time>
      </trkpt>
      <trkpt lat="48.7863" lon="-0.64148">
        <ele>187.6</ele>
        <time>2013-08-23T10:05:42Z</time>
      </trkpt>
      <trkpt lat="48.78635" lon="-0.64147">
        <ele>187.6</ele>
        <time>2013-08-23T10:05:43Z</time>
      </trkpt>
      <trkpt lat="48.78648" lon="-0.64146">
        <ele>187.4</ele>
        <time>2013-08-23T10:05:46Z</time>
      </trkpt>
      <trkpt lat="48.78667" lon="-0.64146">
        <ele>186.8</ele>
        <time>2013-08-23T10:05:50Z</time>
      </trkpt>
      <trkpt lat="48.78671" lon="-0.64144">
        <ele>186.6</ele>
        <time>2013-08-23T10:05:51Z</time>
      </trkpt>
      <trkpt lat="48.7869" lon="-0.64135">
        <ele>185.8</ele>
        <time>2013-08-23T10:05:55Z</time>
      </trkpt>
      <trkpt lat="48.78693" lon="-0.6413">
        <ele>185.8</ele>
        <time>2013-08-23T10:05:56Z</time>
      </trkpt>
      <trkpt lat="48.78697" lon="-0.64126">
        <ele>185.6</ele>
        <time>2013-08-23T10:05:57Z</time>
      </trkpt>
      <trkpt lat="48.78728" lon="-0.6405">
        <ele>185.8</ele>
        <time>2013-08-23T10:06:12Z</time>
      </trkpt>
      <trkpt lat="48.78731" lon="-0.64048">
        <ele>186</ele>
        <time>2013-08-23T10:06:13Z</time>
      </trkpt>
      <trkpt lat="48.78734" lon="-0.64046">
        <ele>186</ele>
        <time>2013-08-23T10:06:14Z</time>
      </trkpt>
      <trkpt lat="48.78738" lon="-0.64045">
        <ele>186.2</ele>
        <time>2013-08-23T10:06:15Z</time>
      </trkpt>
      <trkpt lat="48.78768" lon="-0.64041">
        <ele>189.2</ele>
        <time>2013-08-23T10:06:27Z</time>
      </trkpt>
      <trkpt lat="48.78789" lon="-0.64032">
        <ele>192.6</ele>
        <time>2013-08-23T10:06:35Z</time>
      </trkpt>
      <trkpt lat="48.7881" lon="-0.64022">
        <ele>195.8</ele>
        <time>2013-08-23T10:06:42Z</time>
      </trkpt>
      <trkpt lat="48.78826" lon="-0.64014">
        <ele>198.8</ele>
        <time>2013-08-23T10:06:48Z</time>
      </trkpt>
      <trkpt lat="48.78841" lon="-0.64008">
        <ele>202</ele>
        <time>2013-08-23T10:06:55Z</time>
      </trkpt>
      <trkpt lat="48.78855" lon="-0.64002">
        <ele>205.2</ele>
        <time>2013-08-23T10:07:03Z</time>
      </trkpt>
      <trkpt lat="48.78872" lon="-0.63997">
        <ele>208.2</ele>
        <time>2013-08-23T10:07:14Z</time>
      </trkpt>
      <trkpt lat="48.78887" lon="-0.63989">
        <ele>211.4</ele>
        <time>2013-08-23T10:07:27Z</time>
      </trkpt>
      <trkpt lat="48.78898" lon="-0.63978">
        <ele>214.6</ele>
        <time>2013-08-23T10:07:39Z</time>
      </trkpt>
      <trkpt lat="48.7891" lon="-0.63968">
        <ele>217.6</ele>
        <time>2013-08-23T10:07:53Z</time>
      </trkpt>
      <trkpt lat="48.78923" lon="-0.6396">
        <ele>220.6</ele>
        <time>2013-08-23T10:08:07Z</time>
      </trkpt>
      <trkpt lat="48.78937" lon="-0.63955">
        <ele>223.8</ele>
        <time>2013-08-23T10:08:18Z</time>
      </trkpt>
      <trkpt lat="48.78948" lon="-0.63948">
        <ele>227</ele>
        <time>2013-08-23T10:08:30Z</time>
      </trkpt>
      <trkpt lat="48.78959" lon="-0.63942">
        <ele>230</ele>
        <time>2013-08-23T10:08:40Z</time>
      </trkpt>
      <trkpt lat="48.78972" lon="-0.63928">
        <ele>233.2</ele>
        <time>2013-08-23T10:08:50Z</time>
      </trkpt>
      <trkpt lat="48.78979" lon="-0.6391">
        <ele>236.2</ele>
        <time>2013-08-23T10:09:01Z</time>
      </trkpt>
      <trkpt lat="48.78993" lon="-0.63889">
        <ele>239.4</ele>
        <time>2013-08-23T10:09:18Z</time>
      </trkpt>
      <trkpt lat="48.79016" lon="-0.6389">
        <ele>242.6</ele>
        <time>2013-08-23T10:09:34Z</time>
      </trkpt>
      <trkpt lat="48.79036" lon="-0.63885">
        <ele>245.6</ele>
        <time>2013-08-23T10:09:49Z</time>
      </trkpt>
      <trkpt lat="48.7905" lon="-0.63873">
        <ele>248.6</ele>
        <time>2013-08-23T10:10:02Z</time>
      </trkpt>
      <trkpt lat="48.79058" lon="-0.63852">
        <ele>251.4</ele>
        <time>2013-08-23T10:10:14Z</time>
      </trkpt>
      <trkpt lat="48.79059" lon="-0.63833">
        <ele>253</ele>
        <time>2013-08-23T10:10:22Z</time>
      </trkpt>
      <trkpt lat="48.79066" lon="-0.63796">
        <ele>256.2</ele>
        <time>2013-08-23T10:10:42Z</time>
      </trkpt>
      <trkpt lat="48.79071" lon="-0.63792">
        <ele>257.6</ele>
        <time>2013-08-23T10:10:47Z</time>
      </trkpt>
      <trkpt lat="48.79093" lon="-0.63781">
        <ele>260.8</ele>
        <time>2013-08-23T10:11:02Z</time>
      </trkpt>
      <trkpt lat="48.7911" lon="-0.63768">
        <ele>263</ele>
        <time>2013-08-23T10:11:14Z</time>
      </trkpt>
      <trkpt lat="48.79111" lon="-0.63768">
        <ele>263</ele>
        <time>2013-08-23T10:11:15Z</time>
      </trkpt>
      <trkpt lat="48.79113" lon="-0.63768">
        <ele>263.2</ele>
        <time>2013-08-23T10:11:16Z</time>
      </trkpt>
      <trkpt lat="48.79114" lon="-0.63767">
        <ele>263.4</ele>
        <time>2013-08-23T10:11:17Z</time>
      </trkpt>
      <trkpt lat="48.79115" lon="-0.63767">
        <ele>263.4</ele>
        <time>2013-08-23T10:11:18Z</time>
      </trkpt>
      <trkpt lat="48.79148" lon="-0.6374">
        <ele>263.6</ele>
        <time>2013-08-23T10:11:33Z</time>
      </trkpt>
      <trkpt lat="48.79174" lon="-0.63711">
        <ele>262.6</ele>
        <time>2013-08-23T10:11:48Z</time>
      </trkpt>
      <trkpt lat="48.79176" lon="-0.63713">
        <ele>262.4</ele>
        <time>2013-08-23T10:11:49Z</time>
      </trkpt>
      <trkpt lat="48.79179" lon="-0.63715">
        <ele>262.4</ele>
        <time>2013-08-23T10:11:50Z</time>
      </trkpt>
      <trkpt lat="48.79181" lon="-0.63718">
        <ele>262.4</ele>
        <time>2013-08-23T10:11:51Z</time>
      </trkpt>
      <trkpt lat="48.79183" lon="-0.63721">
        <ele>262.4</ele>
        <time>2013-08-23T10:11:52Z</time>
      </trkpt>
      <trkpt lat="48.79201" lon="-0.63759">
        <ele>262.4</ele>
        <time>2013-08-23T10:12:05Z</time>
      </trkpt>
      <trkpt lat="48.79211" lon="-0.63796">
        <ele>262</ele>
        <time>2013-08-23T10:12:18Z</time>
      </trkpt>
      <trkpt lat="48.79216" lon="-0.6383">
        <ele>261.4</ele>
        <time>2013-08-23T10:12:27Z</time>
      </trkpt>
      <trkpt lat="48.79218" lon="-0.63835">
        <ele>261.4</ele>
        <time>2013-08-23T10:12:28Z</time>
      </trkpt>
      <trkpt lat="48.7922" lon="-0.63838">
        <ele>261.4</ele>
        <time>2013-08-23T10:12:29Z</time>
      </trkpt>
      <trkpt lat="48.79223" lon="-0.6384">
        <ele>261.2</ele>
        <time>2013-08-23T10:12:30Z</time>
      </trkpt>
      <trkpt lat="48.79225" lon="-0.63843">
        <ele>261.2</ele>
        <time>2013-08-23T10:12:31Z</time>
      </trkpt>
      <trkpt lat="48.79228" lon="-0.63846">
        <ele>261</ele>
        <time>2013-08-23T10:12:32Z</time>
      </trkpt>
      <trkpt lat="48.79245" lon="-0.63867">
        <ele>260.4</ele>
        <time>2013-08-23T10:12:39Z</time>
      </trkpt>
      <trkpt lat="48.79254" lon="-0.63884">
        <ele>260</ele>
        <time>2013-08-23T10:12:44Z</time>
      </trkpt>
      <trkpt lat="48.79262" lon="-0.63915">
        <ele>259.6</ele>
        <time>2013-08-23T10:12:54Z</time>
      </trkpt>
      <trkpt lat="48.79243" lon="-0.63941">
        <ele>259.6</ele>
        <time>2013-08-23T10:13:06Z</time>
      </trkpt>
      <trkpt lat="48.79227" lon="-0.63946">
        <ele>259</ele>
        <time>2013-08-23T10:13:19Z</time>
      </trkpt>
      <trkpt lat="48.79228" lon="-0.63943">
        <ele>258.8</ele>
        <time>2013-08-23T10:13:21Z</time>
      </trkpt>
      <trkpt lat="48.79235" lon="-0.63953">
        <ele>258.6</ele>
        <time>2013-08-23T10:13:26Z</time>
      </trkpt>
      <trkpt lat="48.7924" lon="-0.63961">
        <ele>258.8</ele>
        <time>2013-08-23T10:13:29Z</time>
      </trkpt>
      <trkpt lat="48.79259" lon="-0.63987">
        <ele>261.4</ele>
        <time>2013-08-23T10:13:39Z</time>
      </trkpt>
      <trkpt lat="48.79276" lon="-0.64004">
        <ele>264.4</ele>
        <time>2013-08-23T10:13:49Z</time>
      </trkpt>
      <trkpt lat="48.79284" lon="-0.64049">
        <ele>267.6</ele>
        <time>2013-08-23T10:14:02Z</time>
      </trkpt>
      <trkpt lat="48.79292" lon="-0.64095">
        <ele>268.4</ele>
        <time>2013-08-23T10:14:14Z</time>
      </trkpt>
      <trkpt lat="48.79301" lon="-0.64142">
        <ele>267.2</ele>
        <time>2013-08-23T10:14:25Z</time>
      </trkpt>
      <trkpt lat="48.79305" lon="-0.64168">
        <ele>265.8</ele>
        <time>2013-08-23T10:14:41Z</time>
      </trkpt>
      <trkpt lat="48.7932" lon="-0.64188">
        <ele>265.2</ele>
        <time>2013-08-23T10:14:55Z</time>
      </trkpt>
      <trkpt lat="48.79321" lon="-0.64188">
        <ele>265.2</ele>
        <time>2013-08-23T10:14:56Z</time>
      </trkpt>
      <trkpt lat="48.79332" lon="-0.64205">
        <ele>265</ele>
        <time>2013-08-23T10:15:02Z</time>
      </trkpt>
      <trkpt lat="48.79333" lon="-0.64218">
        <ele>264.8</ele>
        <time>2013-08-23T10:15:06Z</time>
      </trkpt>
      <trkpt lat="48.79337" lon="-0.64243">
        <ele>264</ele>
        <time>2013-08-23T10:15:13Z</time>
      </trkpt>
      <trkpt lat="48.79339" lon="-0.64291">
        <ele>260.8</ele>
        <time>2013-08-23T10:15:25Z</time>
      </trkpt>
      <trkpt lat="48.79337" lon="-0.64333">
        <ele>258</ele>
        <time>2013-08-23T10:15:36Z</time>
      </trkpt>
      <trkpt lat="48.79348" lon="-0.6438">
        <ele>256.4</ele>
        <time>2013-08-23T10:15:48Z</time>
      </trkpt>
      <trkpt lat="48.79371" lon="-0.64396">
        <ele>255.2</ele>
        <time>2013-08-23T10:15:57Z</time>
      </trkpt>
      <trkpt lat="48.79393" lon="-0.64407">
        <ele>255.2</ele>
        <time>2013-08-23T10:16:07Z</time>
      </trkpt>
      <trkpt lat="48.79394" lon="-0.64406">
        <ele>255.2</ele>
        <time>2013-08-23T10:16:12Z</time>
      </trkpt>
      <trkpt lat="48.79425" lon="-0.64394">
        <ele>259.4</ele>
        <time>2013-08-23T10:18:26Z</time>
      </trkpt>
      <trkpt lat="48.79432" lon="-0.64395">
        <ele>257.8</ele>
        <time>2013-08-23T10:18:43Z</time>
      </trkpt>
      <trkpt lat="48.79434" lon="-0.64395">
        <ele>258.4</ele>
        <time>2013-08-23T10:18:50Z</time>
      </trkpt>
      <trkpt lat="48.79459" lon="-0.64391">
        <ele>259.8</ele>
        <time>2013-08-23T10:19:27Z</time>
      </trkpt>
      <trkpt lat="48.79463" lon="-0.64392">
        <ele>259.6</ele>
        <time>2013-08-23T10:19:30Z</time>
      </trkpt>
      <trkpt lat="48.79479" lon="-0.64387">
        <ele>258.8</ele>
        <time>2013-08-23T10:19:43Z</time>
      </trkpt>
      <trkpt lat="48.79485" lon="-0.6439">
        <ele>258.6</ele>
        <time>2013-08-23T10:19:49Z</time>
      </trkpt>
      <trkpt lat="48.79504" lon="-0.64403">
        <ele>256.6</ele>
        <time>2013-08-23T10:20:00Z</time>
      </trkpt>
      <trkpt lat="48.79523" lon="-0.64412">
        <ele>253.4</ele>
        <time>2013-08-23T10:20:11Z</time>
      </trkpt>
      <trkpt lat="48.79545" lon="-0.64424">
        <ele>250.4</ele>
        <time>2013-08-23T10:20:19Z</time>
      </trkpt>
      <trkpt lat="48.79572" lon="-0.64432">
        <ele>248.6</ele>
        <time>2013-08-23T10:20:31Z</time>
      </trkpt>
      <trkpt lat="48.79593" lon="-0.64441">
        <ele>247.6</ele>
        <time>2013-08-23T10:20:40Z</time>
      </trkpt>
      <trkpt lat="48.796" lon="-0.64443">
        <ele>246.8</ele>
        <time>2013-08-23T10:20:45Z</time>
      </trkpt>
      <trkpt lat="48.7961" lon="-0.64461">
        <ele>245.8</ele>
        <time>2013-08-23T10:20:52Z</time>
      </trkpt>
      <trkpt lat="48.7961" lon="-0.64468">
        <ele>245.2</ele>
        <time>2013-08-23T10:20:54Z</time>
      </trkpt>
      <trkpt lat="48.79605" lon="-0.64495">
        <ele>241.6</ele>
        <time>2013-08-23T10:21:03Z</time>
      </trkpt>
      <trkpt lat="48.79599" lon="-0.64503">
        <ele>239</ele>
        <time>2013-08-23T10:21:09Z</time>
      </trkpt>
      <trkpt lat="48.79593" lon="-0.64512">
        <ele>236.4</ele>
        <time>2013-08-23T10:21:24Z</time>
      </trkpt>
      <trkpt lat="48.79575" lon="-0.64561">
        <ele>223</ele>
        <time>2013-08-23T10:23:23Z</time>
      </trkpt>
      <trkpt lat="48.79586" lon="-0.64571">
        <ele>221.8</ele>
        <time>2013-08-23T10:23:34Z</time>
      </trkpt>
      <trkpt lat="48.79584" lon="-0.64573">
        <ele>221.4</ele>
        <time>2013-08-23T10:23:41Z</time>
      </trkpt>
      <trkpt lat="48.7958" lon="-0.64606">
        <ele>213.6</ele>
        <time>2013-08-23T10:24:39Z</time>
      </trkpt>
      <trkpt lat="48.79577" lon="-0.64626">
        <ele>210.6</ele>
        <time>2013-08-23T10:24:53Z</time>
      </trkpt>
      <trkpt lat="48.79577" lon="-0.64638">
        <ele>208</ele>
        <time>2013-08-23T10:24:59Z</time>
      </trkpt>
      <trkpt lat="48.79573" lon="-0.64659">
        <ele>204.4</ele>
        <time>2013-08-23T10:25:07Z</time>
      </trkpt>
      <trkpt lat="48.79573" lon="-0.6466">
        <ele>202.4</ele>
        <time>2013-08-23T10:25:12Z</time>
      </trkpt>
      <trkpt lat="48.79569" lon="-0.64685">
        <ele>198.8</ele>
        <time>2013-08-23T10:25:39Z</time>
      </trkpt>
      <trkpt lat="48.79567" lon="-0.64715">
        <ele>195.6</ele>
        <time>2013-08-23T10:25:48Z</time>
      </trkpt>
      <trkpt lat="48.79564" lon="-0.64728">
        <ele>193</ele>
        <time>2013-08-23T10:25:53Z</time>
      </trkpt>
      <trkpt lat="48.79561" lon="-0.64754">
        <ele>189</ele>
        <time>2013-08-23T10:26:01Z</time>
      </trkpt>
      <trkpt lat="48.79558" lon="-0.64763">
        <ele>188</ele>
        <time>2013-08-23T10:26:03Z</time>
      </trkpt>
      <trkpt lat="48.79548" lon="-0.64779">
        <ele>185.4</ele>
        <time>2013-08-23T10:26:09Z</time>
      </trkpt>
      <trkpt lat="48.79544" lon="-0.64812">
        <ele>181.6</ele>
        <time>2013-08-23T10:26:18Z</time>
      </trkpt>
      <trkpt lat="48.79542" lon="-0.6484">
        <ele>178.4</ele>
        <time>2013-08-23T10:26:26Z</time>
      </trkpt>
      <trkpt lat="48.79546" lon="-0.64861">
        <ele>175.2</ele>
        <time>2013-08-23T10:26:33Z</time>
      </trkpt>
      <trkpt lat="48.79546" lon="-0.64889">
        <ele>172.2</ele>
        <time>2013-08-23T10:26:41Z</time>
      </trkpt>
      <trkpt lat="48.79549" lon="-0.64926">
        <ele>169</ele>
        <time>2013-08-23T10:26:51Z</time>
      </trkpt>
      <trkpt lat="48.79561" lon="-0.64971">
        <ele>165.8</ele>
        <time>2013-08-23T10:27:01Z</time>
      </trkpt>
      <trkpt lat="48.79563" lon="-0.64997">
        <ele>163.4</ele>
        <time>2013-08-23T10:27:07Z</time>
      </trkpt>
      <trkpt lat="48.79549" lon="-0.65028">
        <ele>159.8</ele>
        <time>2013-08-23T10:27:16Z</time>
      </trkpt>
      <trkpt lat="48.79536" lon="-0.65045">
        <ele>156.6</ele>
        <time>2013-08-23T10:27:24Z</time>
      </trkpt>
      <trkpt lat="48.79539" lon="-0.65051">
        <ele>155.6</ele>
        <time>2013-08-23T10:27:27Z</time>
      </trkpt>
      <trkpt lat="48.79543" lon="-0.65053">
        <ele>154.8</ele>
        <time>2013-08-23T10:27:29Z</time>
      </trkpt>
      <trkpt lat="48.79546" lon="-0.65053">
        <ele>154.6</ele>
        <time>2013-08-23T10:27:30Z</time>
      </trkpt>
      <trkpt lat="48.79577" lon="-0.65059">
        <ele>151.2</ele>
        <time>2013-08-23T10:27:39Z</time>
      </trkpt>
      <trkpt lat="48.79611" lon="-0.65056">
        <ele>148.2</ele>
        <time>2013-08-23T10:27:51Z</time>
      </trkpt>
      <trkpt lat="48.79637" lon="-0.65072">
        <ele>148.2</ele>
        <time>2013-08-23T10:28:02Z</time>
      </trkpt>
      <trkpt lat="48.79661" lon="-0.65112">
        <ele>148.2</ele>
        <time>2013-08-23T10:28:15Z</time>
      </trkpt>
      <trkpt lat="48.79663" lon="-0.6511">
        <ele>148.2</ele>
        <time>2013-08-23T10:28:16Z</time>
      </trkpt>
      <trkpt lat="48.79666" lon="-0.65107">
        <ele>148.2</ele>
        <time>2013-08-23T10:28:17Z</time>
      </trkpt>
      <trkpt lat="48.79667" lon="-0.65102">
        <ele>148.2</ele>
        <time>2013-08-23T10:28:18Z</time>
      </trkpt>
      <trkpt lat="48.79669" lon="-0.65098">
        <ele>148.2</ele>
        <time>2013-08-23T10:28:19Z</time>
      </trkpt>
      <trkpt lat="48.79689" lon="-0.65048">
        <ele>149</ele>
        <time>2013-08-23T10:28:31Z</time>
      </trkpt>
      <trkpt lat="48.79709" lon="-0.65019">
        <ele>151.4</ele>
        <time>2013-08-23T10:28:44Z</time>
      </trkpt>
      <trkpt lat="48.79703" lon="-0.65017">
        <ele>152</ele>
        <time>2013-08-23T10:28:56Z</time>
      </trkpt>
      <trkpt lat="48.7972" lon="-0.65011">
        <ele>152.2</ele>
        <time>2013-08-23T10:29:24Z</time>
      </trkpt>
      <trkpt lat="48.79722" lon="-0.65008">
        <ele>152.2</ele>
        <time>2013-08-23T10:29:25Z</time>
      </trkpt>
      <trkpt lat="48.79723" lon="-0.65006">
        <ele>152.2</ele>
        <time>2013-08-23T10:29:26Z</time>
      </trkpt>
      <trkpt lat="48.79725" lon="-0.65004">
        <ele>152</ele>
        <time>2013-08-23T10:29:27Z</time>
      </trkpt>
      <trkpt lat="48.79727" lon="-0.65001">
        <ele>152</ele>
        <time>2013-08-23T10:29:28Z</time>
      </trkpt>
      <trkpt lat="48.79729" lon="-0.64998">
        <ele>152</ele>
        <time>2013-08-23T10:29:29Z</time>
      </trkpt>
      <trkpt lat="48.79732" lon="-0.64994">
        <ele>151.8</ele>
        <time>2013-08-23T10:29:30Z</time>
      </trkpt>
      <trkpt lat="48.79764" lon="-0.64955">
        <ele>150.8</ele>
        <time>2013-08-23T10:29:38Z</time>
      </trkpt>
      <trkpt lat="48.7981" lon="-0.64892">
        <ele>148.6</ele>
        <time>2013-08-23T10:29:50Z</time>
      </trkpt>
      <trkpt lat="48.79819" lon="-0.64881">
        <ele>148.2</ele>
        <time>2013-08-23T10:29:52Z</time>
      </trkpt>
      <trkpt lat="48.7985" lon="-0.64843">
        <ele>147.4</ele>
        <time>2013-08-23T10:29:59Z</time>
      </trkpt>
      <trkpt lat="48.79859" lon="-0.64831">
        <ele>147.4</ele>
        <time>2013-08-23T10:30:01Z</time>
      </trkpt>
      <trkpt lat="48.7989" lon="-0.64775">
        <ele>147.2</ele>
        <time>2013-08-23T10:30:10Z</time>
      </trkpt>
      <trkpt lat="48.79892" lon="-0.64768">
        <ele>147</ele>
        <time>2013-08-23T10:30:11Z</time>
      </trkpt>
      <trkpt lat="48.79902" lon="-0.64729">
        <ele>146.8</ele>
        <time>2013-08-23T10:30:16Z</time>
      </trkpt>
      <trkpt lat="48.79903" lon="-0.64721">
        <ele>146.8</ele>
        <time>2013-08-23T10:30:17Z</time>
      </trkpt>
      <trkpt lat="48.79903" lon="-0.64714">
        <ele>146.8</ele>
        <time>2013-08-23T10:30:18Z</time>
      </trkpt>
      <trkpt lat="48.79902" lon="-0.64692">
        <ele>146.8</ele>
        <time>2013-08-23T10:30:21Z</time>
      </trkpt>
      <trkpt lat="48.799" lon="-0.64684">
        <ele>146.8</ele>
        <time>2013-08-23T10:30:22Z</time>
      </trkpt>
      <trkpt lat="48.79898" lon="-0.64677">
        <ele>146.8</ele>
        <time>2013-08-23T10:30:23Z</time>
      </trkpt>
      <trkpt lat="48.79897" lon="-0.64671">
        <ele>146.8</ele>
        <time>2013-08-23T10:30:24Z</time>
      </trkpt>
      <trkpt lat="48.79895" lon="-0.64665">
        <ele>146.8</ele>
        <time>2013-08-23T10:30:25Z</time>
      </trkpt>
      <trkpt lat="48.79884" lon="-0.64626">
        <ele>146.8</ele>
        <time>2013-08-23T10:30:32Z</time>
      </trkpt>
      <trkpt lat="48.79883" lon="-0.64619">
        <ele>146.8</ele>
        <time>2013-08-23T10:30:33Z</time>
      </trkpt>
      <trkpt lat="48.79882" lon="-0.64611">
        <ele>146.6</ele>
        <time>2013-08-23T10:30:34Z</time>
      </trkpt>
      <trkpt lat="48.79877" lon="-0.64587">
        <ele>146.4</ele>
        <time>2013-08-23T10:30:37Z</time>
      </trkpt>
      <trkpt lat="48.79875" lon="-0.64579">
        <ele>146.4</ele>
        <time>2013-08-23T10:30:38Z</time>
      </trkpt>
      <trkpt lat="48.79874" lon="-0.64571">
        <ele>146.4</ele>
        <time>2013-08-23T10:30:39Z</time>
      </trkpt>
      <trkpt lat="48.79874" lon="-0.64563">
        <ele>146.4</ele>
        <time>2013-08-23T10:30:40Z</time>
      </trkpt>
      <trkpt lat="48.79874" lon="-0.64555">
        <ele>146.4</ele>
        <time>2013-08-23T10:30:41Z</time>
      </trkpt>
      <trkpt lat="48.79875" lon="-0.64546">
        <ele>146.4</ele>
        <time>2013-08-23T10:30:42Z</time>
      </trkpt>
      <trkpt lat="48.79876" lon="-0.64521">
        <ele>146.6</ele>
        <time>2013-08-23T10:30:45Z</time>
      </trkpt>
      <trkpt lat="48.79878" lon="-0.64512">
        <ele>146.6</ele>
        <time>2013-08-23T10:30:46Z</time>
      </trkpt>
      <trkpt lat="48.79881" lon="-0.64498">
        <ele>146.8</ele>
        <time>2013-08-23T10:30:48Z</time>
      </trkpt>
      <trkpt lat="48.79928" lon="-0.64419">
        <ele>147</ele>
        <time>2013-08-23T10:31:00Z</time>
      </trkpt>
      <trkpt lat="48.79937" lon="-0.64404">
        <ele>147</ele>
        <time>2013-08-23T10:31:02Z</time>
      </trkpt>
      <trkpt lat="48.79939" lon="-0.64397">
        <ele>147</ele>
        <time>2013-08-23T10:31:03Z</time>
      </trkpt>
      <trkpt lat="48.79945" lon="-0.64383">
        <ele>147</ele>
        <time>2013-08-23T10:31:05Z</time>
      </trkpt>
      <trkpt lat="48.79951" lon="-0.64369">
        <ele>146.8</ele>
        <time>2013-08-23T10:31:07Z</time>
      </trkpt>
      <trkpt lat="48.79963" lon="-0.64326">
        <ele>146.8</ele>
        <time>2013-08-23T10:31:13Z</time>
      </trkpt>
      <trkpt lat="48.79969" lon="-0.64292">
        <ele>146.6</ele>
        <time>2013-08-23T10:31:17Z</time>
      </trkpt>
      <trkpt lat="48.79974" lon="-0.64157">
        <ele>145</ele>
        <time>2013-08-23T10:31:32Z</time>
      </trkpt>
      <trkpt lat="48.79974" lon="-0.64141">
        <ele>145.2</ele>
        <time>2013-08-23T10:31:34Z</time>
      </trkpt>
      <trkpt lat="48.79964" lon="-0.6405">
        <ele>145.4</ele>
        <time>2013-08-23T10:31:46Z</time>
      </trkpt>
      <trkpt lat="48.7995" lon="-0.63974">
        <ele>146.8</ele>
        <time>2013-08-23T10:31:58Z</time>
      </trkpt>
      <trkpt lat="48.79951" lon="-0.63967">
        <ele>147</ele>
        <time>2013-08-23T10:31:59Z</time>
      </trkpt>
      <trkpt lat="48.79953" lon="-0.6396">
        <ele>147.2</ele>
        <time>2013-08-23T10:32:00Z</time>
      </trkpt>
      <trkpt lat="48.79955" lon="-0.63953">
        <ele>147.2</ele>
        <time>2013-08-23T10:32:01Z</time>
      </trkpt>
      <trkpt lat="48.79959" lon="-0.63947">
        <ele>147.4</ele>
        <time>2013-08-23T10:32:02Z</time>
      </trkpt>
      <trkpt lat="48.79961" lon="-0.63941">
        <ele>147.4</ele>
        <time>2013-08-23T10:32:03Z</time>
      </trkpt>
      <trkpt lat="48.79964" lon="-0.63933">
        <ele>147.4</ele>
        <time>2013-08-23T10:32:04Z</time>
      </trkpt>
      <trkpt lat="48.79966" lon="-0.63925">
        <ele>147.4</ele>
        <time>2013-08-23T10:32:05Z</time>
      </trkpt>
      <trkpt lat="48.79989" lon="-0.63871">
        <ele>145.4</ele>
        <time>2013-08-23T10:32:12Z</time>
      </trkpt>
      <trkpt lat="48.79993" lon="-0.63866">
        <ele>145</ele>
        <time>2013-08-23T10:32:13Z</time>
      </trkpt>
      <trkpt lat="48.80006" lon="-0.63852">
        <ele>144</ele>
        <time>2013-08-23T10:32:16Z</time>
      </trkpt>
      <trkpt lat="48.8001" lon="-0.63848">
        <ele>143.8</ele>
        <time>2013-08-23T10:32:17Z</time>
      </trkpt>
      <trkpt lat="48.8006" lon="-0.63785">
        <ele>142.8</ele>
        <time>2013-08-23T10:32:31Z</time>
      </trkpt>
      <trkpt lat="48.80095" lon="-0.63745">
        <ele>142.6</ele>
        <time>2013-08-23T10:32:41Z</time>
      </trkpt>
      <trkpt lat="48.80127" lon="-0.63708">
        <ele>142.4</ele>
        <time>2013-08-23T10:32:53Z</time>
      </trkpt>
      <trkpt lat="48.8014" lon="-0.63688">
        <ele>143.6</ele>
        <time>2013-08-23T10:33:06Z</time>
      </trkpt>
      <trkpt lat="48.80139" lon="-0.63689">
        <ele>143.6</ele>
        <time>2013-08-23T10:33:10Z</time>
      </trkpt>
      <trkpt lat="48.80144" lon="-0.6369">
        <ele>143.6</ele>
        <time>2013-08-23T10:33:31Z</time>
      </trkpt>
      <trkpt lat="48.80146" lon="-0.63693">
        <ele>143.6</ele>
        <time>2013-08-23T10:33:32Z</time>
      </trkpt>
      <trkpt lat="48.80155" lon="-0.63699">
        <ele>143.8</ele>
        <time>2013-08-23T10:33:37Z</time>
      </trkpt>
      <trkpt lat="48.80157" lon="-0.63698">
        <ele>143.8</ele>
        <time>2013-08-23T10:33:38Z</time>
      </trkpt>
      <trkpt lat="48.80159" lon="-0.63696">
        <ele>143.8</ele>
        <time>2013-08-23T10:33:39Z</time>
      </trkpt>
      <trkpt lat="48.80161" lon="-0.63692">
        <ele>144</ele>
        <time>2013-08-23T10:33:40Z</time>
      </trkpt>
      <trkpt lat="48.80163" lon="-0.63689">
        <ele>144</ele>
        <time>2013-08-23T10:33:41Z</time>
      </trkpt>
      <trkpt lat="48.80164" lon="-0.63685">
        <ele>144</ele>
        <time>2013-08-23T10:33:42Z</time>
      </trkpt>
      <trkpt lat="48.80165" lon="-0.63681">
        <ele>144</ele>
        <time>2013-08-23T10:33:43Z</time>
      </trkpt>
      <trkpt lat="48.80173" lon="-0.63647">
        <ele>142.2</ele>
        <time>2013-08-23T10:33:50Z</time>
      </trkpt>
      <trkpt lat="48.80175" lon="-0.63641">
        <ele>142</ele>
        <time>2013-08-23T10:33:51Z</time>
      </trkpt>
      <trkpt lat="48.80178" lon="-0.63635">
        <ele>141.8</ele>
        <time>2013-08-23T10:33:52Z</time>
      </trkpt>
      <trkpt lat="48.80181" lon="-0.6363">
        <ele>141.6</ele>
        <time>2013-08-23T10:33:53Z</time>
      </trkpt>
      <trkpt lat="48.80184" lon="-0.63625">
        <ele>141.4</ele>
        <time>2013-08-23T10:33:54Z</time>
      </trkpt>
      <trkpt lat="48.80191" lon="-0.63615">
        <ele>141.2</ele>
        <time>2013-08-23T10:33:56Z</time>
      </trkpt>
      <trkpt lat="48.80239" lon="-0.6356">
        <ele>140</ele>
        <time>2013-08-23T10:34:10Z</time>
      </trkpt>
      <trkpt lat="48.80252" lon="-0.63542">
        <ele>140</ele>
        <time>2013-08-23T10:34:14Z</time>
      </trkpt>
      <trkpt lat="48.8026" lon="-0.63526">
        <ele>139.8</ele>
        <time>2013-08-23T10:34:17Z</time>
      </trkpt>
      <trkpt lat="48.80262" lon="-0.6352">
        <ele>139.8</ele>
        <time>2013-08-23T10:34:18Z</time>
      </trkpt>
      <trkpt lat="48.80264" lon="-0.63514">
        <ele>139.8</ele>
        <time>2013-08-23T10:34:19Z</time>
      </trkpt>
      <trkpt lat="48.80266" lon="-0.63509">
        <ele>139.8</ele>
        <time>2013-08-23T10:34:20Z</time>
      </trkpt>
      <trkpt lat="48.80268" lon="-0.63503">
        <ele>139.8</ele>
        <time>2013-08-23T10:34:21Z</time>
      </trkpt>
      <trkpt lat="48.80273" lon="-0.63493">
        <ele>139.8</ele>
        <time>2013-08-23T10:34:23Z</time>
      </trkpt>
      <trkpt lat="48.80277" lon="-0.63488">
        <ele>139.6</ele>
        <time>2013-08-23T10:34:24Z</time>
      </trkpt>
      <trkpt lat="48.8028" lon="-0.63484">
        <ele>139.6</ele>
        <time>2013-08-23T10:34:25Z</time>
      </trkpt>
      <trkpt lat="48.80337" lon="-0.63403">
        <ele>139.4</ele>
        <time>2013-08-23T10:34:43Z</time>
      </trkpt>
      <trkpt lat="48.80344" lon="-0.63394">
        <ele>139.2</ele>
        <time>2013-08-23T10:34:45Z</time>
      </trkpt>
      <trkpt lat="48.80385" lon="-0.6332">
        <ele>138.8</ele>
        <time>2013-08-23T10:35:01Z</time>
      </trkpt>
      <trkpt lat="48.80397" lon="-0.63296">
        <ele>139</ele>
        <time>2013-08-23T10:35:06Z</time>
      </trkpt>
      <trkpt lat="48.80417" lon="-0.63231">
        <ele>138.8</ele>
        <time>2013-08-23T10:35:18Z</time>
      </trkpt>
      <trkpt lat="48.80425" lon="-0.63222">
        <ele>138.8</ele>
        <time>2013-08-23T10:35:21Z</time>
      </trkpt>
      <trkpt lat="48.80429" lon="-0.63223">
        <ele>138.8</ele>
        <time>2013-08-23T10:35:22Z</time>
      </trkpt>
      <trkpt lat="48.80434" lon="-0.63225">
        <ele>138.8</ele>
        <time>2013-08-23T10:35:23Z</time>
      </trkpt>
      <trkpt lat="48.8044" lon="-0.63227">
        <ele>138.8</ele>
        <time>2013-08-23T10:35:24Z</time>
      </trkpt>
      <trkpt lat="48.80446" lon="-0.63227">
        <ele>138.8</ele>
        <time>2013-08-23T10:35:25Z</time>
      </trkpt>
      <trkpt lat="48.80488" lon="-0.6324">
        <ele>139.6</ele>
        <time>2013-08-23T10:35:36Z</time>
      </trkpt>
      <trkpt lat="48.8049" lon="-0.63237">
        <ele>139.8</ele>
        <time>2013-08-23T10:35:37Z</time>
      </trkpt>
      <trkpt lat="48.80491" lon="-0.63232">
        <ele>140</ele>
        <time>2013-08-23T10:35:38Z</time>
      </trkpt>
      <trkpt lat="48.80492" lon="-0.63226">
        <ele>140.2</ele>
        <time>2013-08-23T10:35:39Z</time>
      </trkpt>
      <trkpt lat="48.80493" lon="-0.6322">
        <ele>140.4</ele>
        <time>2013-08-23T10:35:40Z</time>
      </trkpt>
      <trkpt lat="48.805" lon="-0.63186">
        <ele>141</ele>
        <time>2013-08-23T10:35:45Z</time>
      </trkpt>
      <trkpt lat="48.80504" lon="-0.63166">
        <ele>141</ele>
        <time>2013-08-23T10:35:48Z</time>
      </trkpt>
      <trkpt lat="48.80518" lon="-0.63068">
        <ele>140.8</ele>
        <time>2013-08-23T10:36:01Z</time>
      </trkpt>
      <trkpt lat="48.80516" lon="-0.63042">
        <ele>140.6</ele>
        <time>2013-08-23T10:36:04Z</time>
      </trkpt>
      <trkpt lat="48.80514" lon="-0.63034">
        <ele>140.4</ele>
        <time>2013-08-23T10:36:05Z</time>
      </trkpt>
      <trkpt lat="48.80511" lon="-0.63027">
        <ele>140.2</ele>
        <time>2013-08-23T10:36:06Z</time>
      </trkpt>
      <trkpt lat="48.80508" lon="-0.63021">
        <ele>140</ele>
        <time>2013-08-23T10:36:07Z</time>
      </trkpt>
      <trkpt lat="48.80503" lon="-0.63015">
        <ele>139.8</ele>
        <time>2013-08-23T10:36:08Z</time>
      </trkpt>
      <trkpt lat="48.805" lon="-0.63008">
        <ele>139.8</ele>
        <time>2013-08-23T10:36:09Z</time>
      </trkpt>
      <trkpt lat="48.80498" lon="-0.63">
        <ele>139.6</ele>
        <time>2013-08-23T10:36:10Z</time>
      </trkpt>
      <trkpt lat="48.80497" lon="-0.62992">
        <ele>139.4</ele>
        <time>2013-08-23T10:36:11Z</time>
      </trkpt>
      <trkpt lat="48.80496" lon="-0.62983">
        <ele>139.4</ele>
        <time>2013-08-23T10:36:12Z</time>
      </trkpt>
      <trkpt lat="48.80494" lon="-0.62975">
        <ele>139.2</ele>
        <time>2013-08-23T10:36:13Z</time>
      </trkpt>
      <trkpt lat="48.80491" lon="-0.62969">
        <ele>139</ele>
        <time>2013-08-23T10:36:14Z</time>
      </trkpt>
      <trkpt lat="48.80487" lon="-0.62966">
        <ele>139</ele>
        <time>2013-08-23T10:36:15Z</time>
      </trkpt>
      <trkpt lat="48.80481" lon="-0.62964">
        <ele>138.8</ele>
        <time>2013-08-23T10:36:16Z</time>
      </trkpt>
      <trkpt lat="48.80475" lon="-0.62963">
        <ele>138.6</ele>
        <time>2013-08-23T10:36:17Z</time>
      </trkpt>
      <trkpt lat="48.8047" lon="-0.62962">
        <ele>138.4</ele>
        <time>2013-08-23T10:36:18Z</time>
      </trkpt>
      <trkpt lat="48.80459" lon="-0.62958">
        <ele>138.2</ele>
        <time>2013-08-23T10:36:20Z</time>
      </trkpt>
      <trkpt lat="48.80455" lon="-0.62954">
        <ele>138</ele>
        <time>2013-08-23T10:36:21Z</time>
      </trkpt>
      <trkpt lat="48.80452" lon="-0.62948">
        <ele>137.8</ele>
        <time>2013-08-23T10:36:22Z</time>
      </trkpt>
      <trkpt lat="48.80452" lon="-0.62941">
        <ele>137.6</ele>
        <time>2013-08-23T10:36:23Z</time>
      </trkpt>
      <trkpt lat="48.80453" lon="-0.62933">
        <ele>137.6</ele>
        <time>2013-08-23T10:36:24Z</time>
      </trkpt>
      <trkpt lat="48.80454" lon="-0.62926">
        <ele>137.4</ele>
        <time>2013-08-23T10:36:25Z</time>
      </trkpt>
      <trkpt lat="48.80457" lon="-0.62919">
        <ele>137.2</ele>
        <time>2013-08-23T10:36:26Z</time>
      </trkpt>
      <trkpt lat="48.8046" lon="-0.62906">
        <ele>137.2</ele>
        <time>2013-08-23T10:36:28Z</time>
      </trkpt>
      <trkpt lat="48.80461" lon="-0.62899">
        <ele>137</ele>
        <time>2013-08-23T10:36:29Z</time>
      </trkpt>
      <trkpt lat="48.80486" lon="-0.62785">
        <ele>136.4</ele>
        <time>2013-08-23T10:36:44Z</time>
      </trkpt>
      <trkpt lat="48.80505" lon="-0.62696">
        <ele>137</ele>
        <time>2013-08-23T10:36:56Z</time>
      </trkpt>
      <trkpt lat="48.80527" lon="-0.62616">
        <ele>137.6</ele>
        <time>2013-08-23T10:37:09Z</time>
      </trkpt>
      <trkpt lat="48.80535" lon="-0.62587">
        <ele>137.6</ele>
        <time>2013-08-23T10:37:14Z</time>
      </trkpt>
      <trkpt lat="48.80536" lon="-0.6258">
        <ele>137.4</ele>
        <time>2013-08-23T10:37:15Z</time>
      </trkpt>
      <trkpt lat="48.80536" lon="-0.62573">
        <ele>137.4</ele>
        <time>2013-08-23T10:37:16Z</time>
      </trkpt>
      <trkpt lat="48.80536" lon="-0.62567">
        <ele>137.4</ele>
        <time>2013-08-23T10:37:17Z</time>
      </trkpt>
      <trkpt lat="48.80536" lon="-0.62561">
        <ele>137.2</ele>
        <time>2013-08-23T10:37:18Z</time>
      </trkpt>
      <trkpt lat="48.80535" lon="-0.62512">
        <ele>137.4</ele>
        <time>2013-08-23T10:37:25Z</time>
      </trkpt>
      <trkpt lat="48.80536" lon="-0.62474">
        <ele>137.4</ele>
        <time>2013-08-23T10:37:30Z</time>
      </trkpt>
      <trkpt lat="48.80536" lon="-0.62467">
        <ele>137.4</ele>
        <time>2013-08-23T10:37:31Z</time>
      </trkpt>
      <trkpt lat="48.80537" lon="-0.62459">
        <ele>137.4</ele>
        <time>2013-08-23T10:37:32Z</time>
      </trkpt>
      <trkpt lat="48.80541" lon="-0.62394">
        <ele>136.4</ele>
        <time>2013-08-23T10:37:40Z</time>
      </trkpt>
      <trkpt lat="48.80543" lon="-0.62385">
        <ele>136.4</ele>
        <time>2013-08-23T10:37:41Z</time>
      </trkpt>
      <trkpt lat="48.80546" lon="-0.6236">
        <ele>135.6</ele>
        <time>2013-08-23T10:37:44Z</time>
      </trkpt>
      <trkpt lat="48.80545" lon="-0.62283">
        <ele>134.2</ele>
        <time>2013-08-23T10:37:57Z</time>
      </trkpt>
      <trkpt lat="48.80542" lon="-0.6228">
        <ele>134.4</ele>
        <time>2013-08-23T10:38:00Z</time>
      </trkpt>
      <trkpt lat="48.80541" lon="-0.6228">
        <ele>134.4</ele>
        <time>2013-08-23T10:38:01Z</time>
      </trkpt>
      <trkpt lat="48.8054" lon="-0.62281">
        <ele>134.4</ele>
        <time>2013-08-23T10:38:02Z</time>
      </trkpt>
      <trkpt lat="48.80492" lon="-0.62313">
        <ele>134.4</ele>
        <time>2013-08-23T10:38:15Z</time>
      </trkpt>
      <trkpt lat="48.80438" lon="-0.62341">
        <ele>134</ele>
        <time>2013-08-23T10:38:27Z</time>
      </trkpt>
      <trkpt lat="48.80434" lon="-0.62341">
        <ele>133.8</ele>
        <time>2013-08-23T10:38:28Z</time>
      </trkpt>
      <trkpt lat="48.80409" lon="-0.62335">
        <ele>133.6</ele>
        <time>2013-08-23T10:38:33Z</time>
      </trkpt>
      <trkpt lat="48.80404" lon="-0.62333">
        <ele>133.6</ele>
        <time>2013-08-23T10:38:34Z</time>
      </trkpt>
      <trkpt lat="48.80381" lon="-0.62325">
        <ele>133.8</ele>
        <time>2013-08-23T10:38:39Z</time>
      </trkpt>
      <trkpt lat="48.80377" lon="-0.62322">
        <ele>133.8</ele>
        <time>2013-08-23T10:38:40Z</time>
      </trkpt>
      <trkpt lat="48.80372" lon="-0.62321">
        <ele>134</ele>
        <time>2013-08-23T10:38:41Z</time>
      </trkpt>
      <trkpt lat="48.80336" lon="-0.6231">
        <ele>134.2</ele>
        <time>2013-08-23T10:38:49Z</time>
      </trkpt>
      <trkpt lat="48.80331" lon="-0.6231">
        <ele>134.2</ele>
        <time>2013-08-23T10:38:50Z</time>
      </trkpt>
      <trkpt lat="48.80326" lon="-0.62311">
        <ele>134.2</ele>
        <time>2013-08-23T10:38:51Z</time>
      </trkpt>
      <trkpt lat="48.80322" lon="-0.62315">
        <ele>134.2</ele>
        <time>2013-08-23T10:38:52Z</time>
      </trkpt>
      <trkpt lat="48.80318" lon="-0.62319">
        <ele>134.2</ele>
        <time>2013-08-23T10:38:53Z</time>
      </trkpt>
      <trkpt lat="48.80315" lon="-0.62325">
        <ele>134.2</ele>
        <time>2013-08-23T10:38:54Z</time>
      </trkpt>
      <trkpt lat="48.80307" lon="-0.62342">
        <ele>134.2</ele>
        <time>2013-08-23T10:38:57Z</time>
      </trkpt>
      <trkpt lat="48.80305" lon="-0.62349">
        <ele>134.2</ele>
        <time>2013-08-23T10:38:58Z</time>
      </trkpt>
      <trkpt lat="48.80299" lon="-0.6237">
        <ele>134.2</ele>
        <time>2013-08-23T10:39:01Z</time>
      </trkpt>
      <trkpt lat="48.80298" lon="-0.62377">
        <ele>134.2</ele>
        <time>2013-08-23T10:39:02Z</time>
      </trkpt>
      <trkpt lat="48.80295" lon="-0.62392">
        <ele>134.2</ele>
        <time>2013-08-23T10:39:04Z</time>
      </trkpt>
      <trkpt lat="48.80291" lon="-0.62407">
        <ele>134.2</ele>
        <time>2013-08-23T10:39:06Z</time>
      </trkpt>
      <trkpt lat="48.80289" lon="-0.62414">
        <ele>134.2</ele>
        <time>2013-08-23T10:39:07Z</time>
      </trkpt>
      <trkpt lat="48.80286" lon="-0.6242">
        <ele>134.2</ele>
        <time>2013-08-23T10:39:08Z</time>
      </trkpt>
      <trkpt lat="48.80282" lon="-0.62426">
        <ele>134.2</ele>
        <time>2013-08-23T10:39:09Z</time>
      </trkpt>
      <trkpt lat="48.80278" lon="-0.62431">
        <ele>134.2</ele>
        <time>2013-08-23T10:39:10Z</time>
      </trkpt>
      <trkpt lat="48.80274" lon="-0.62435">
        <ele>134.2</ele>
        <time>2013-08-23T10:39:11Z</time>
      </trkpt>
      <trkpt lat="48.80269" lon="-0.62437">
        <ele>134.4</ele>
        <time>2013-08-23T10:39:12Z</time>
      </trkpt>
      <trkpt lat="48.80264" lon="-0.62438">
        <ele>134.4</ele>
        <time>2013-08-23T10:39:13Z</time>
      </trkpt>
      <trkpt lat="48.80259" lon="-0.62436">
        <ele>134.4</ele>
        <time>2013-08-23T10:39:14Z</time>
      </trkpt>
      <trkpt lat="48.80255" lon="-0.62433">
        <ele>134.4</ele>
        <time>2013-08-23T10:39:15Z</time>
      </trkpt>
      <trkpt lat="48.8025" lon="-0.62428">
        <ele>134.6</ele>
        <time>2013-08-23T10:39:16Z</time>
      </trkpt>
      <trkpt lat="48.80246" lon="-0.62423">
        <ele>134.6</ele>
        <time>2013-08-23T10:39:17Z</time>
      </trkpt>
      <trkpt lat="48.80243" lon="-0.62417">
        <ele>134.6</ele>
        <time>2013-08-23T10:39:18Z</time>
      </trkpt>
      <trkpt lat="48.8024" lon="-0.6241">
        <ele>134.8</ele>
        <time>2013-08-23T10:39:19Z</time>
      </trkpt>
      <trkpt lat="48.802" lon="-0.62323">
        <ele>135</ele>
        <time>2013-08-23T10:39:32Z</time>
      </trkpt>
      <trkpt lat="48.80195" lon="-0.62317">
        <ele>135</ele>
        <time>2013-08-23T10:39:33Z</time>
      </trkpt>
      <trkpt lat="48.8019" lon="-0.62313">
        <ele>135</ele>
        <time>2013-08-23T10:39:34Z</time>
      </trkpt>
      <trkpt lat="48.80185" lon="-0.6231">
        <ele>135</ele>
        <time>2013-08-23T10:39:35Z</time>
      </trkpt>
      <trkpt lat="48.8018" lon="-0.62307">
        <ele>134.8</ele>
        <time>2013-08-23T10:39:36Z</time>
      </trkpt>
      <trkpt lat="48.80165" lon="-0.623">
        <ele>134.8</ele>
        <time>2013-08-23T10:39:39Z</time>
      </trkpt>
      <trkpt lat="48.80161" lon="-0.623">
        <ele>134.6</ele>
        <time>2013-08-23T10:39:40Z</time>
      </trkpt>
      <trkpt lat="48.80157" lon="-0.62301">
        <ele>134.6</ele>
        <time>2013-08-23T10:39:41Z</time>
      </trkpt>
      <trkpt lat="48.80153" lon="-0.62303">
        <ele>134.8</ele>
        <time>2013-08-23T10:39:42Z</time>
      </trkpt>
      <trkpt lat="48.8015" lon="-0.62305">
        <ele>134.8</ele>
        <time>2013-08-23T10:39:43Z</time>
      </trkpt>
      <trkpt lat="48.80147" lon="-0.62307">
        <ele>135</ele>
        <time>2013-08-23T10:39:44Z</time>
      </trkpt>
      <trkpt lat="48.80146" lon="-0.62309">
        <ele>135</ele>
        <time>2013-08-23T10:39:45Z</time>
      </trkpt>
      <trkpt lat="48.80144" lon="-0.62311">
        <ele>135.2</ele>
        <time>2013-08-23T10:39:46Z</time>
      </trkpt>
      <trkpt lat="48.80143" lon="-0.62312">
        <ele>135.2</ele>
        <time>2013-08-23T10:39:47Z</time>
      </trkpt>
      <trkpt lat="48.80144" lon="-0.6231">
        <ele>135.4</ele>
        <time>2013-08-23T10:39:49Z</time>
      </trkpt>
      <trkpt lat="48.80146" lon="-0.62308">
        <ele>135.6</ele>
        <time>2013-08-23T10:39:50Z</time>
      </trkpt>
      <trkpt lat="48.80149" lon="-0.62305">
        <ele>135.6</ele>
        <time>2013-08-23T10:39:51Z</time>
      </trkpt>
      <trkpt lat="48.80165" lon="-0.62288">
        <ele>135.8</ele>
        <time>2013-08-23T10:39:56Z</time>
      </trkpt>
      <trkpt lat="48.80167" lon="-0.62282">
        <ele>135.8</ele>
        <time>2013-08-23T10:39:57Z</time>
      </trkpt>
      <trkpt lat="48.80171" lon="-0.62266">
        <ele>135.6</ele>
        <time>2013-08-23T10:40:00Z</time>
      </trkpt>
      <trkpt lat="48.80172" lon="-0.6226">
        <ele>135.6</ele>
        <time>2013-08-23T10:40:01Z</time>
      </trkpt>
      <trkpt lat="48.80181" lon="-0.62186">
        <ele>136</ele>
        <time>2013-08-23T10:40:14Z</time>
      </trkpt>
      <trkpt lat="48.80181" lon="-0.62183">
        <ele>136</ele>
        <time>2013-08-23T10:40:15Z</time>
      </trkpt>
      <trkpt lat="48.8018" lon="-0.62179">
        <ele>136.2</ele>
        <time>2013-08-23T10:40:16Z</time>
      </trkpt>
      <trkpt lat="48.80178" lon="-0.62176">
        <ele>136.4</ele>
        <time>2013-08-23T10:40:17Z</time>
      </trkpt>
      <trkpt lat="48.80175" lon="-0.62173">
        <ele>136.6</ele>
        <time>2013-08-23T10:40:18Z</time>
      </trkpt>
      <trkpt lat="48.80173" lon="-0.6217">
        <ele>136.6</ele>
        <time>2013-08-23T10:40:19Z</time>
      </trkpt>
      <trkpt lat="48.80171" lon="-0.62167">
        <ele>136.8</ele>
        <time>2013-08-23T10:40:20Z</time>
      </trkpt>
      <trkpt lat="48.80169" lon="-0.62165">
        <ele>137</ele>
        <time>2013-08-23T10:40:21Z</time>
      </trkpt>
      <trkpt lat="48.80166" lon="-0.62164">
        <ele>137.2</ele>
        <time>2013-08-23T10:40:22Z</time>
      </trkpt>
      <trkpt lat="48.8014" lon="-0.62156">
        <ele>140.2</ele>
        <time>2013-08-23T10:40:31Z</time>
      </trkpt>
      <trkpt lat="48.80117" lon="-0.62148">
        <ele>143.6</ele>
        <time>2013-08-23T10:40:38Z</time>
      </trkpt>
      <trkpt lat="48.80095" lon="-0.62139">
        <ele>146.8</ele>
        <time>2013-08-23T10:40:45Z</time>
      </trkpt>
      <trkpt lat="48.80057" lon="-0.62125">
        <ele>149.8</ele>
        <time>2013-08-23T10:40:57Z</time>
      </trkpt>
      <trkpt lat="48.80025" lon="-0.62105">
        <ele>153</ele>
        <time>2013-08-23T10:41:09Z</time>
      </trkpt>
      <trkpt lat="48.79989" lon="-0.62078">
        <ele>155.8</ele>
        <time>2013-08-23T10:41:22Z</time>
      </trkpt>
      <trkpt lat="48.79948" lon="-0.62057">
        <ele>155.4</ele>
        <time>2013-08-23T10:41:33Z</time>
      </trkpt>
      <trkpt lat="48.79903" lon="-0.62046">
        <ele>155.6</ele>
        <time>2013-08-23T10:41:44Z</time>
      </trkpt>
      <trkpt lat="48.79899" lon="-0.62045">
        <ele>155.6</ele>
        <time>2013-08-23T10:41:45Z</time>
      </trkpt>
      <trkpt lat="48.7984" lon="-0.62025">
        <ele>157.8</ele>
        <time>2013-08-23T10:42:00Z</time>
      </trkpt>
      <trkpt lat="48.79814" lon="-0.62017">
        <ele>157.8</ele>
        <time>2013-08-23T10:42:07Z</time>
      </trkpt>
      <trkpt lat="48.79768" lon="-0.62005">
        <ele>157.6</ele>
        <time>2013-08-23T10:42:19Z</time>
      </trkpt>
      <trkpt lat="48.79729" lon="-0.61994">
        <ele>157.2</ele>
        <time>2013-08-23T10:42:30Z</time>
      </trkpt>
      <trkpt lat="48.7972" lon="-0.61989">
        <ele>157</ele>
        <time>2013-08-23T10:42:34Z</time>
      </trkpt>
      <trkpt lat="48.79718" lon="-0.61986">
        <ele>157</ele>
        <time>2013-08-23T10:42:35Z</time>
      </trkpt>
      <trkpt lat="48.79716" lon="-0.6198">
        <ele>157</ele>
        <time>2013-08-23T10:42:36Z</time>
      </trkpt>
      <trkpt lat="48.79713" lon="-0.61974">
        <ele>156.8</ele>
        <time>2013-08-23T10:42:37Z</time>
      </trkpt>
      <trkpt lat="48.79712" lon="-0.61968">
        <ele>156.8</ele>
        <time>2013-08-23T10:42:38Z</time>
      </trkpt>
      <trkpt lat="48.79711" lon="-0.61961">
        <ele>156.8</ele>
        <time>2013-08-23T10:42:39Z</time>
      </trkpt>
      <trkpt lat="48.79708" lon="-0.61954">
        <ele>157</ele>
        <time>2013-08-23T10:42:40Z</time>
      </trkpt>
      <trkpt lat="48.79705" lon="-0.61867">
        <ele>160.2</ele>
        <time>2013-08-23T10:42:54Z</time>
      </trkpt>
      <trkpt lat="48.79694" lon="-0.61815">
        <ele>162.2</ele>
        <time>2013-08-23T10:43:05Z</time>
      </trkpt>
      <trkpt lat="48.79691" lon="-0.61813">
        <ele>162.2</ele>
        <time>2013-08-23T10:43:06Z</time>
      </trkpt>
      <trkpt lat="48.79656" lon="-0.61806">
        <ele>163.6</ele>
        <time>2013-08-23T10:43:16Z</time>
      </trkpt>
      <trkpt lat="48.7962" lon="-0.61778">
        <ele>165.4</ele>
        <time>2013-08-23T10:43:26Z</time>
      </trkpt>
      <trkpt lat="48.79579" lon="-0.61747">
        <ele>168.6</ele>
        <time>2013-08-23T10:43:38Z</time>
      </trkpt>
      <trkpt lat="48.79546" lon="-0.61743">
        <ele>171.6</ele>
        <time>2013-08-23T10:43:45Z</time>
      </trkpt>
      <trkpt lat="48.795" lon="-0.61738">
        <ele>174.8</ele>
        <time>2013-08-23T10:43:57Z</time>
      </trkpt>
      <trkpt lat="48.79461" lon="-0.61715">
        <ele>178</ele>
        <time>2013-08-23T10:44:09Z</time>
      </trkpt>
      <trkpt lat="48.79415" lon="-0.61686">
        <ele>180.4</ele>
        <time>2013-08-23T10:44:21Z</time>
      </trkpt>
      <trkpt lat="48.79377" lon="-0.61653">
        <ele>183.4</ele>
        <time>2013-08-23T10:44:33Z</time>
      </trkpt>
      <trkpt lat="48.79336" lon="-0.61612">
        <ele>186</ele>
        <time>2013-08-23T10:44:46Z</time>
      </trkpt>
      <trkpt lat="48.79324" lon="-0.61598">
        <ele>186.6</ele>
        <time>2013-08-23T10:44:49Z</time>
      </trkpt>
      <trkpt lat="48.79283" lon="-0.61568">
        <ele>188.8</ele>
        <time>2013-08-23T10:45:00Z</time>
      </trkpt>
      <trkpt lat="48.79235" lon="-0.6155">
        <ele>190.6</ele>
        <time>2013-08-23T10:45:11Z</time>
      </trkpt>
      <trkpt lat="48.79225" lon="-0.61545">
        <ele>190.8</ele>
        <time>2013-08-23T10:45:13Z</time>
      </trkpt>
      <trkpt lat="48.79156" lon="-0.61518">
        <ele>192.8</ele>
        <time>2013-08-23T10:45:28Z</time>
      </trkpt>
      <trkpt lat="48.7911" lon="-0.61493">
        <ele>194</ele>
        <time>2013-08-23T10:45:40Z</time>
      </trkpt>
      <trkpt lat="48.79064" lon="-0.61472">
        <ele>194.8</ele>
        <time>2013-08-23T10:45:52Z</time>
      </trkpt>
      <trkpt lat="48.79026" lon="-0.6145">
        <ele>195.4</ele>
        <time>2013-08-23T10:46:03Z</time>
      </trkpt>
      <trkpt lat="48.79022" lon="-0.61448">
        <ele>195.4</ele>
        <time>2013-08-23T10:46:05Z</time>
      </trkpt>
      <trkpt lat="48.79021" lon="-0.61438">
        <ele>195.8</ele>
        <time>2013-08-23T10:46:09Z</time>
      </trkpt>
      <trkpt lat="48.79026" lon="-0.6139">
        <ele>196</ele>
        <time>2013-08-23T10:46:17Z</time>
      </trkpt>
      <trkpt lat="48.79035" lon="-0.61353">
        <ele>196.2</ele>
        <time>2013-08-23T10:46:22Z</time>
      </trkpt>
      <trkpt lat="48.79042" lon="-0.61318">
        <ele>196.2</ele>
        <time>2013-08-23T10:46:27Z</time>
      </trkpt>
      <trkpt lat="48.79055" lon="-0.61273">
        <ele>196.2</ele>
        <time>2013-08-23T10:46:33Z</time>
      </trkpt>
      <trkpt lat="48.7907" lon="-0.61217">
        <ele>196.2</ele>
        <time>2013-08-23T10:46:41Z</time>
      </trkpt>
      <trkpt lat="48.79078" lon="-0.61195">
        <ele>196.2</ele>
        <time>2013-08-23T10:46:44Z</time>
      </trkpt>
      <trkpt lat="48.7909" lon="-0.61153">
        <ele>196</ele>
        <time>2013-08-23T10:46:49Z</time>
      </trkpt>
      <trkpt lat="48.79112" lon="-0.61063">
        <ele>195.4</ele>
        <time>2013-08-23T10:47:01Z</time>
      </trkpt>
      <trkpt lat="48.79123" lon="-0.61003">
        <ele>195.2</ele>
        <time>2013-08-23T10:47:09Z</time>
      </trkpt>
      <trkpt lat="48.79128" lon="-0.60987">
        <ele>195.2</ele>
        <time>2013-08-23T10:47:11Z</time>
      </trkpt>
      <trkpt lat="48.79145" lon="-0.6092">
        <ele>194.8</ele>
        <time>2013-08-23T10:47:19Z</time>
      </trkpt>
      <trkpt lat="48.79179" lon="-0.60777">
        <ele>192.8</ele>
        <time>2013-08-23T10:47:35Z</time>
      </trkpt>
      <trkpt lat="48.79192" lon="-0.60733">
        <ele>192.4</ele>
        <time>2013-08-23T10:47:40Z</time>
      </trkpt>
      <trkpt lat="48.79196" lon="-0.60714">
        <ele>192.2</ele>
        <time>2013-08-23T10:47:42Z</time>
      </trkpt>
      <trkpt lat="48.79214" lon="-0.60605">
        <ele>190.4</ele>
        <time>2013-08-23T10:47:54Z</time>
      </trkpt>
      <trkpt lat="48.79221" lon="-0.6057">
        <ele>190.4</ele>
        <time>2013-08-23T10:47:59Z</time>
      </trkpt>
      <trkpt lat="48.79211" lon="-0.60543">
        <ele>190.6</ele>
        <time>2013-08-23T10:48:06Z</time>
      </trkpt>
      <trkpt lat="48.79207" lon="-0.60546">
        <ele>190.6</ele>
        <time>2013-08-23T10:48:07Z</time>
      </trkpt>
      <trkpt lat="48.79182" lon="-0.60562">
        <ele>191</ele>
        <time>2013-08-23T10:48:12Z</time>
      </trkpt>
      <trkpt lat="48.79164" lon="-0.60562">
        <ele>191.4</ele>
        <time>2013-08-23T10:48:16Z</time>
      </trkpt>
      <trkpt lat="48.7916" lon="-0.60552">
        <ele>192</ele>
        <time>2013-08-23T10:48:18Z</time>
      </trkpt>
      <trkpt lat="48.79159" lon="-0.60546">
        <ele>192.2</ele>
        <time>2013-08-23T10:48:19Z</time>
      </trkpt>
      <trkpt lat="48.79158" lon="-0.6054">
        <ele>192.4</ele>
        <time>2013-08-23T10:48:20Z</time>
      </trkpt>
      <trkpt lat="48.79158" lon="-0.60532">
        <ele>192.6</ele>
        <time>2013-08-23T10:48:21Z</time>
      </trkpt>
      <trkpt lat="48.79158" lon="-0.60518">
        <ele>193</ele>
        <time>2013-08-23T10:48:23Z</time>
      </trkpt>
      <trkpt lat="48.79159" lon="-0.60482">
        <ele>193.4</ele>
        <time>2013-08-23T10:48:29Z</time>
      </trkpt>
      <trkpt lat="48.79168" lon="-0.60382">
        <ele>192.4</ele>
        <time>2013-08-23T10:48:40Z</time>
      </trkpt>
      <trkpt lat="48.7917" lon="-0.60364">
        <ele>192</ele>
        <time>2013-08-23T10:48:42Z</time>
      </trkpt>
      <trkpt lat="48.79169" lon="-0.6026">
        <ele>191.4</ele>
        <time>2013-08-23T10:48:56Z</time>
      </trkpt>
      <trkpt lat="48.79166" lon="-0.602">
        <ele>192</ele>
        <time>2013-08-23T10:49:09Z</time>
      </trkpt>
      <trkpt lat="48.79164" lon="-0.60168">
        <ele>192</ele>
        <time>2013-08-23T10:49:14Z</time>
      </trkpt>
      <trkpt lat="48.79164" lon="-0.60161">
        <ele>192</ele>
        <time>2013-08-23T10:49:15Z</time>
      </trkpt>
      <trkpt lat="48.79161" lon="-0.60089">
        <ele>192.2</ele>
        <time>2013-08-23T10:49:29Z</time>
      </trkpt>
      <trkpt lat="48.79157" lon="-0.60045">
        <ele>192.4</ele>
        <time>2013-08-23T10:49:43Z</time>
      </trkpt>
      <trkpt lat="48.79152" lon="-0.59993">
        <ele>192.4</ele>
        <time>2013-08-23T10:49:57Z</time>
      </trkpt>
      <trkpt lat="48.79149" lon="-0.59955">
        <ele>192.4</ele>
        <time>2013-08-23T10:50:11Z</time>
      </trkpt>
      <trkpt lat="48.79145" lon="-0.59902">
        <ele>192.6</ele>
        <time>2013-08-23T10:50:25Z</time>
      </trkpt>
      <trkpt lat="48.7914" lon="-0.59838">
        <ele>192.8</ele>
        <time>2013-08-23T10:50:36Z</time>
      </trkpt>
      <trkpt lat="48.79135" lon="-0.59749">
        <ele>193.4</ele>
        <time>2013-08-23T10:50:51Z</time>
      </trkpt>
      <trkpt lat="48.79137" lon="-0.59746">
        <ele>193.8</ele>
        <time>2013-08-23T10:50:57Z</time>
      </trkpt>
      <trkpt lat="48.79147" lon="-0.59754">
        <ele>193.8</ele>
        <time>2013-08-23T10:51:58Z</time>
      </trkpt>
      <trkpt lat="48.7915" lon="-0.59755">
        <ele>193.8</ele>
        <time>2013-08-23T10:51:59Z</time>
      </trkpt>
      <trkpt lat="48.79153" lon="-0.59757">
        <ele>193.8</ele>
        <time>2013-08-23T10:52:00Z</time>
      </trkpt>
      <trkpt lat="48.79201" lon="-0.59793">
        <ele>192.4</ele>
        <time>2013-08-23T10:52:12Z</time>
      </trkpt>
      <trkpt lat="48.79222" lon="-0.59811">
        <ele>191.8</ele>
        <time>2013-08-23T10:52:17Z</time>
      </trkpt>
      <trkpt lat="48.79282" lon="-0.59859">
        <ele>190</ele>
        <time>2013-08-23T10:52:30Z</time>
      </trkpt>
      <trkpt lat="48.79286" lon="-0.59861">
        <ele>189.6</ele>
        <time>2013-08-23T10:52:31Z</time>
      </trkpt>
      <trkpt lat="48.79344" lon="-0.59888">
        <ele>186.4</ele>
        <time>2013-08-23T10:52:43Z</time>
      </trkpt>
      <trkpt lat="48.7936" lon="-0.59894">
        <ele>183.8</ele>
        <time>2013-08-23T10:52:51Z</time>
      </trkpt>
      <trkpt lat="48.79362" lon="-0.5989">
        <ele>183.4</ele>
        <time>2013-08-23T10:52:53Z</time>
      </trkpt>
      <trkpt lat="48.79371" lon="-0.59872">
        <ele>183.4</ele>
        <time>2013-08-23T10:53:01Z</time>
      </trkpt>
      <trkpt lat="48.79373" lon="-0.59873">
        <ele>183.4</ele>
        <time>2013-08-23T10:53:02Z</time>
      </trkpt>
      <trkpt lat="48.79375" lon="-0.59873">
        <ele>183.6</ele>
        <time>2013-08-23T10:53:03Z</time>
      </trkpt>
      <trkpt lat="48.79378" lon="-0.59873">
        <ele>183.6</ele>
        <time>2013-08-23T10:53:04Z</time>
      </trkpt>
      <trkpt lat="48.79381" lon="-0.59874">
        <ele>183.6</ele>
        <time>2013-08-23T10:53:05Z</time>
      </trkpt>
      <trkpt lat="48.79385" lon="-0.59874">
        <ele>183.8</ele>
        <time>2013-08-23T10:53:06Z</time>
      </trkpt>
      <trkpt lat="48.79389" lon="-0.59875">
        <ele>183.8</ele>
        <time>2013-08-23T10:53:07Z</time>
      </trkpt>
      <trkpt lat="48.79392" lon="-0.59875">
        <ele>183.6</ele>
        <time>2013-08-23T10:53:08Z</time>
      </trkpt>
      <trkpt lat="48.79417" lon="-0.59869">
        <ele>180.6</ele>
        <time>2013-08-23T10:53:20Z</time>
      </trkpt>
      <trkpt lat="48.79451" lon="-0.59866">
        <ele>177.4</ele>
        <time>2013-08-23T10:53:28Z</time>
      </trkpt>
      <trkpt lat="48.7949" lon="-0.59851">
        <ele>179.4</ele>
        <time>2013-08-23T10:53:39Z</time>
      </trkpt>
      <trkpt lat="48.79534" lon="-0.59855">
        <ele>182.4</ele>
        <time>2013-08-23T10:53:50Z</time>
      </trkpt>
      <trkpt lat="48.79543" lon="-0.59852">
        <ele>182.8</ele>
        <time>2013-08-23T10:53:53Z</time>
      </trkpt>
      <trkpt lat="48.79545" lon="-0.59849">
        <ele>182.8</ele>
        <time>2013-08-23T10:53:54Z</time>
      </trkpt>
      <trkpt lat="48.79546" lon="-0.59844">
        <ele>183.2</ele>
        <time>2013-08-23T10:53:55Z</time>
      </trkpt>
      <trkpt lat="48.79546" lon="-0.59838">
        <ele>183.2</ele>
        <time>2013-08-23T10:53:56Z</time>
      </trkpt>
      <trkpt lat="48.79545" lon="-0.59831">
        <ele>183.4</ele>
        <time>2013-08-23T10:53:57Z</time>
      </trkpt>
      <trkpt lat="48.79554" lon="-0.59743">
        <ele>185.4</ele>
        <time>2013-08-23T10:54:10Z</time>
      </trkpt>
      <trkpt lat="48.79558" lon="-0.59717">
        <ele>186</ele>
        <time>2013-08-23T10:54:14Z</time>
      </trkpt>
      <trkpt lat="48.79559" lon="-0.59703">
        <ele>186.6</ele>
        <time>2013-08-23T10:54:16Z</time>
      </trkpt>
      <trkpt lat="48.79574" lon="-0.59619">
        <ele>188</ele>
        <time>2013-08-23T10:54:28Z</time>
      </trkpt>
      <trkpt lat="48.79597" lon="-0.59492">
        <ele>190</ele>
        <time>2013-08-23T10:54:45Z</time>
      </trkpt>
      <trkpt lat="48.79598" lon="-0.59485">
        <ele>190.2</ele>
        <time>2013-08-23T10:54:46Z</time>
      </trkpt>
      <trkpt lat="48.796" lon="-0.59469">
        <ele>190.6</ele>
        <time>2013-08-23T10:54:48Z</time>
      </trkpt>
      <trkpt lat="48.79621" lon="-0.59334">
        <ele>192.6</ele>
        <time>2013-08-23T10:55:06Z</time>
      </trkpt>
      <trkpt lat="48.79643" lon="-0.59185">
        <ele>194.6</ele>
        <time>2013-08-23T10:55:27Z</time>
      </trkpt>
      <trkpt lat="48.79646" lon="-0.59159">
        <ele>195</ele>
        <time>2013-08-23T10:55:31Z</time>
      </trkpt>
      <trkpt lat="48.79645" lon="-0.59153">
        <ele>195</ele>
        <time>2013-08-23T10:55:32Z</time>
      </trkpt>
      <trkpt lat="48.79643" lon="-0.59148">
        <ele>195</ele>
        <time>2013-08-23T10:55:33Z</time>
      </trkpt>
      <trkpt lat="48.7964" lon="-0.59144">
        <ele>195.2</ele>
        <time>2013-08-23T10:55:34Z</time>
      </trkpt>
      <trkpt lat="48.79636" lon="-0.59141">
        <ele>195.2</ele>
        <time>2013-08-23T10:55:35Z</time>
      </trkpt>
      <trkpt lat="48.79632" lon="-0.59138">
        <ele>195.2</ele>
        <time>2013-08-23T10:55:36Z</time>
      </trkpt>
      <trkpt lat="48.79627" lon="-0.59136">
        <ele>195.4</ele>
        <time>2013-08-23T10:55:37Z</time>
      </trkpt>
      <trkpt lat="48.79551" lon="-0.59102">
        <ele>195.4</ele>
        <time>2013-08-23T10:55:51Z</time>
      </trkpt>
      <trkpt lat="48.79466" lon="-0.59065">
        <ele>195</ele>
        <time>2013-08-23T10:56:07Z</time>
      </trkpt>
      <trkpt lat="48.79392" lon="-0.5904">
        <ele>195.2</ele>
        <time>2013-08-23T10:56:21Z</time>
      </trkpt>
      <trkpt lat="48.79324" lon="-0.59018">
        <ele>196.2</ele>
        <time>2013-08-23T10:56:34Z</time>
      </trkpt>
      <trkpt lat="48.79319" lon="-0.59016">
        <ele>196.2</ele>
        <time>2013-08-23T10:56:35Z</time>
      </trkpt>
      <trkpt lat="48.79314" lon="-0.59014">
        <ele>196.4</ele>
        <time>2013-08-23T10:56:36Z</time>
      </trkpt>
      <trkpt lat="48.79249" lon="-0.58986">
        <ele>198.4</ele>
        <time>2013-08-23T10:56:49Z</time>
      </trkpt>
      <trkpt lat="48.79176" lon="-0.5896">
        <ele>200.4</ele>
        <time>2013-08-23T10:57:02Z</time>
      </trkpt>
      <trkpt lat="48.79085" lon="-0.58951">
        <ele>203.8</ele>
        <time>2013-08-23T10:57:17Z</time>
      </trkpt>
      <trkpt lat="48.79007" lon="-0.58928">
        <ele>207</ele>
        <time>2013-08-23T10:57:31Z</time>
      </trkpt>
      <trkpt lat="48.78902" lon="-0.58893">
        <ele>209.8</ele>
        <time>2013-08-23T10:57:51Z</time>
      </trkpt>
      <trkpt lat="48.78838" lon="-0.58857">
        <ele>211</ele>
        <time>2013-08-23T10:58:05Z</time>
      </trkpt>
      <trkpt lat="48.78825" lon="-0.58843">
        <ele>211.2</ele>
        <time>2013-08-23T10:58:08Z</time>
      </trkpt>
      <trkpt lat="48.78766" lon="-0.58787">
        <ele>212.4</ele>
        <time>2013-08-23T10:58:21Z</time>
      </trkpt>
      <trkpt lat="48.78692" lon="-0.58715">
        <ele>213</ele>
        <time>2013-08-23T10:58:38Z</time>
      </trkpt>
      <trkpt lat="48.78678" lon="-0.587">
        <ele>213.4</ele>
        <time>2013-08-23T10:58:42Z</time>
      </trkpt>
      <trkpt lat="48.78674" lon="-0.58694">
        <ele>213.4</ele>
        <time>2013-08-23T10:58:43Z</time>
      </trkpt>
      <trkpt lat="48.7864" lon="-0.58648">
        <ele>214.2</ele>
        <time>2013-08-23T10:58:52Z</time>
      </trkpt>
      <trkpt lat="48.7863" lon="-0.58631">
        <ele>214.4</ele>
        <time>2013-08-23T10:58:55Z</time>
      </trkpt>
      <trkpt lat="48.78578" lon="-0.58541">
        <ele>216.8</ele>
        <time>2013-08-23T10:59:09Z</time>
      </trkpt>
      <trkpt lat="48.78532" lon="-0.58413">
        <ele>219.6</ele>
        <time>2013-08-23T10:59:27Z</time>
      </trkpt>
      <trkpt lat="48.78508" lon="-0.5835">
        <ele>220.8</ele>
        <time>2013-08-23T10:59:36Z</time>
      </trkpt>
      <trkpt lat="48.78493" lon="-0.58326">
        <ele>221.2</ele>
        <time>2013-08-23T10:59:40Z</time>
      </trkpt>
      <trkpt lat="48.78479" lon="-0.5831">
        <ele>221.4</ele>
        <time>2013-08-23T10:59:43Z</time>
      </trkpt>
      <trkpt lat="48.78405" lon="-0.58267">
        <ele>222.4</ele>
        <time>2013-08-23T10:59:57Z</time>
      </trkpt>
      <trkpt lat="48.78287" lon="-0.58238">
        <ele>221.2</ele>
        <time>2013-08-23T11:00:15Z</time>
      </trkpt>
      <trkpt lat="48.78185" lon="-0.58258">
        <ele>218</ele>
        <time>2013-08-23T11:00:29Z</time>
      </trkpt>
      <trkpt lat="48.78085" lon="-0.58284">
        <ele>215</ele>
        <time>2013-08-23T11:00:43Z</time>
      </trkpt>
      <trkpt lat="48.78029" lon="-0.58299">
        <ele>212.8</ele>
        <time>2013-08-23T11:00:51Z</time>
      </trkpt>
      <trkpt lat="48.78022" lon="-0.58298">
        <ele>212.6</ele>
        <time>2013-08-23T11:00:52Z</time>
      </trkpt>
      <trkpt lat="48.78015" lon="-0.58295">
        <ele>212.4</ele>
        <time>2013-08-23T11:00:53Z</time>
      </trkpt>
      <trkpt lat="48.78008" lon="-0.58291">
        <ele>212.2</ele>
        <time>2013-08-23T11:00:54Z</time>
      </trkpt>
      <trkpt lat="48.78002" lon="-0.58286">
        <ele>212</ele>
        <time>2013-08-23T11:00:55Z</time>
      </trkpt>
      <trkpt lat="48.77996" lon="-0.58279">
        <ele>211.8</ele>
        <time>2013-08-23T11:00:56Z</time>
      </trkpt>
      <trkpt lat="48.7799" lon="-0.58272">
        <ele>211.4</ele>
        <time>2013-08-23T11:00:57Z</time>
      </trkpt>
      <trkpt lat="48.77986" lon="-0.58264">
        <ele>211.2</ele>
        <time>2013-08-23T11:00:58Z</time>
      </trkpt>
      <trkpt lat="48.77982" lon="-0.58255">
        <ele>210.8</ele>
        <time>2013-08-23T11:00:59Z</time>
      </trkpt>
      <trkpt lat="48.77949" lon="-0.5818">
        <ele>208.2</ele>
        <time>2013-08-23T11:01:08Z</time>
      </trkpt>
      <trkpt lat="48.77924" lon="-0.58151">
        <ele>207</ele>
        <time>2013-08-23T11:01:13Z</time>
      </trkpt>
      <trkpt lat="48.77919" lon="-0.58147">
        <ele>206.8</ele>
        <time>2013-08-23T11:01:14Z</time>
      </trkpt>
      <trkpt lat="48.77855" lon="-0.58126">
        <ele>204.2</ele>
        <time>2013-08-23T11:01:23Z</time>
      </trkpt>
      <trkpt lat="48.77848" lon="-0.58126">
        <ele>203.8</ele>
        <time>2013-08-23T11:01:24Z</time>
      </trkpt>
      <trkpt lat="48.77777" lon="-0.58157">
        <ele>201.6</ele>
        <time>2013-08-23T11:01:35Z</time>
      </trkpt>
      <trkpt lat="48.77719" lon="-0.58214">
        <ele>203</ele>
        <time>2013-08-23T11:01:48Z</time>
      </trkpt>
      <trkpt lat="48.77715" lon="-0.58217">
        <ele>203.2</ele>
        <time>2013-08-23T11:01:49Z</time>
      </trkpt>
      <trkpt lat="48.77703" lon="-0.58226">
        <ele>204.2</ele>
        <time>2013-08-23T11:01:52Z</time>
      </trkpt>
      <trkpt lat="48.77699" lon="-0.58228">
        <ele>204.6</ele>
        <time>2013-08-23T11:01:53Z</time>
      </trkpt>
      <trkpt lat="48.7768" lon="-0.58232">
        <ele>206.6</ele>
        <time>2013-08-23T11:01:57Z</time>
      </trkpt>
      <trkpt lat="48.77639" lon="-0.58219">
        <ele>209.8</ele>
        <time>2013-08-23T11:02:06Z</time>
      </trkpt>
      <trkpt lat="48.77604" lon="-0.58194">
        <ele>213</ele>
        <time>2013-08-23T11:02:15Z</time>
      </trkpt>
      <trkpt lat="48.77569" lon="-0.58166">
        <ele>216.2</ele>
        <time>2013-08-23T11:02:24Z</time>
      </trkpt>
      <trkpt lat="48.77528" lon="-0.58132">
        <ele>219.4</ele>
        <time>2013-08-23T11:02:34Z</time>
      </trkpt>
      <trkpt lat="48.77481" lon="-0.58093">
        <ele>222.6</ele>
        <time>2013-08-23T11:02:45Z</time>
      </trkpt>
      <trkpt lat="48.77411" lon="-0.58038">
        <ele>224.4</ele>
        <time>2013-08-23T11:03:00Z</time>
      </trkpt>
      <trkpt lat="48.77394" lon="-0.58023">
        <ele>224.6</ele>
        <time>2013-08-23T11:03:04Z</time>
      </trkpt>
      <trkpt lat="48.77386" lon="-0.58016">
        <ele>224.6</ele>
        <time>2013-08-23T11:03:06Z</time>
      </trkpt>
      <trkpt lat="48.77382" lon="-0.58012">
        <ele>224.8</ele>
        <time>2013-08-23T11:03:07Z</time>
      </trkpt>
      <trkpt lat="48.77356" lon="-0.57982">
        <ele>224.4</ele>
        <time>2013-08-23T11:03:14Z</time>
      </trkpt>
      <trkpt lat="48.77309" lon="-0.57895">
        <ele>221.6</ele>
        <time>2013-08-23T11:03:29Z</time>
      </trkpt>
      <trkpt lat="48.77298" lon="-0.57873">
        <ele>221</ele>
        <time>2013-08-23T11:03:32Z</time>
      </trkpt>
      <trkpt lat="48.77289" lon="-0.5785">
        <ele>220.4</ele>
        <time>2013-08-23T11:03:35Z</time>
      </trkpt>
      <trkpt lat="48.77272" lon="-0.57738">
        <ele>221.4</ele>
        <time>2013-08-23T11:03:49Z</time>
      </trkpt>
      <trkpt lat="48.77267" lon="-0.57659">
        <ele>224.4</ele>
        <time>2013-08-23T11:03:59Z</time>
      </trkpt>
      <trkpt lat="48.77266" lon="-0.57628">
        <ele>225.8</ele>
        <time>2013-08-23T11:04:03Z</time>
      </trkpt>
      <trkpt lat="48.77265" lon="-0.5762">
        <ele>226.2</ele>
        <time>2013-08-23T11:04:04Z</time>
      </trkpt>
      <trkpt lat="48.77264" lon="-0.57612">
        <ele>226.6</ele>
        <time>2013-08-23T11:04:05Z</time>
      </trkpt>
      <trkpt lat="48.77263" lon="-0.57605">
        <ele>226.8</ele>
        <time>2013-08-23T11:04:06Z</time>
      </trkpt>
      <trkpt lat="48.77261" lon="-0.57598">
        <ele>227.2</ele>
        <time>2013-08-23T11:04:07Z</time>
      </trkpt>
      <trkpt lat="48.77256" lon="-0.57585">
        <ele>228</ele>
        <time>2013-08-23T11:04:09Z</time>
      </trkpt>
      <trkpt lat="48.77256" lon="-0.5758">
        <ele>228.4</ele>
        <time>2013-08-23T11:04:10Z</time>
      </trkpt>
      <trkpt lat="48.77252" lon="-0.57576">
        <ele>228.6</ele>
        <time>2013-08-23T11:04:11Z</time>
      </trkpt>
      <trkpt lat="48.77246" lon="-0.57574">
        <ele>229</ele>
        <time>2013-08-23T11:04:12Z</time>
      </trkpt>
      <trkpt lat="48.7724" lon="-0.57572">
        <ele>229.4</ele>
        <time>2013-08-23T11:04:13Z</time>
      </trkpt>
      <trkpt lat="48.77232" lon="-0.57572">
        <ele>229.8</ele>
        <time>2013-08-23T11:04:14Z</time>
      </trkpt>
      <trkpt lat="48.77226" lon="-0.57572">
        <ele>230.2</ele>
        <time>2013-08-23T11:04:15Z</time>
      </trkpt>
      <trkpt lat="48.77152" lon="-0.57563">
        <ele>232.4</ele>
        <time>2013-08-23T11:04:27Z</time>
      </trkpt>
      <trkpt lat="48.7713" lon="-0.5755">
        <ele>232.4</ele>
        <time>2013-08-23T11:04:31Z</time>
      </trkpt>
      <trkpt lat="48.77099" lon="-0.57523">
        <ele>232.2</ele>
        <time>2013-08-23T11:04:37Z</time>
      </trkpt>
      <trkpt lat="48.77037" lon="-0.5748">
        <ele>231.4</ele>
        <time>2013-08-23T11:04:50Z</time>
      </trkpt>
      <trkpt lat="48.7696" lon="-0.57461">
        <ele>232.2</ele>
        <time>2013-08-23T11:05:05Z</time>
      </trkpt>
      <trkpt lat="48.7695" lon="-0.57462">
        <ele>232.2</ele>
        <time>2013-08-23T11:05:07Z</time>
      </trkpt>
      <trkpt lat="48.76945" lon="-0.5746">
        <ele>232.2</ele>
        <time>2013-08-23T11:05:08Z</time>
      </trkpt>
      <trkpt lat="48.7694" lon="-0.57457">
        <ele>232.2</ele>
        <time>2013-08-23T11:05:09Z</time>
      </trkpt>
      <trkpt lat="48.76935" lon="-0.57453">
        <ele>232.2</ele>
        <time>2013-08-23T11:05:10Z</time>
      </trkpt>
      <trkpt lat="48.7693" lon="-0.5745">
        <ele>232.4</ele>
        <time>2013-08-23T11:05:11Z</time>
      </trkpt>
      <trkpt lat="48.76881" lon="-0.57427">
        <ele>231.8</ele>
        <time>2013-08-23T11:05:21Z</time>
      </trkpt>
      <trkpt lat="48.76879" lon="-0.57428">
        <ele>231.8</ele>
        <time>2013-08-23T11:05:22Z</time>
      </trkpt>
      <trkpt lat="48.76877" lon="-0.57428">
        <ele>231.8</ele>
        <time>2013-08-23T11:05:23Z</time>
      </trkpt>
      <trkpt lat="48.76875" lon="-0.57427">
        <ele>231.6</ele>
        <time>2013-08-23T11:05:24Z</time>
      </trkpt>
      <trkpt lat="48.76874" lon="-0.57425">
        <ele>231.6</ele>
        <time>2013-08-23T11:05:25Z</time>
      </trkpt>
      <trkpt lat="48.76874" lon="-0.57418">
        <ele>231.8</ele>
        <time>2013-08-23T11:05:27Z</time>
      </trkpt>
      <trkpt lat="48.76877" lon="-0.57416">
        <ele>231.8</ele>
        <time>2013-08-23T11:05:28Z</time>
      </trkpt>
      <trkpt lat="48.7688" lon="-0.57416">
        <ele>231.8</ele>
        <time>2013-08-23T11:05:29Z</time>
      </trkpt>
      <trkpt lat="48.76884" lon="-0.57418">
        <ele>231.8</ele>
        <time>2013-08-23T11:05:30Z</time>
      </trkpt>
      <trkpt lat="48.76888" lon="-0.57421">
        <ele>231.8</ele>
        <time>2013-08-23T11:05:31Z</time>
      </trkpt>
      <trkpt lat="48.76897" lon="-0.57427">
        <ele>231.8</ele>
        <time>2013-08-23T11:05:33Z</time>
      </trkpt>
      <trkpt lat="48.76932" lon="-0.57454">
        <ele>232.8</ele>
        <time>2013-08-23T11:05:45Z</time>
      </trkpt>
      <trkpt lat="48.76929" lon="-0.57456">
        <ele>232.8</ele>
        <time>2013-08-23T11:05:46Z</time>
      </trkpt>
      <trkpt lat="48.76925" lon="-0.57459">
        <ele>232.8</ele>
        <time>2013-08-23T11:05:47Z</time>
      </trkpt>
      <trkpt lat="48.76919" lon="-0.57461">
        <ele>233</ele>
        <time>2013-08-23T11:05:48Z</time>
      </trkpt>
      <trkpt lat="48.76914" lon="-0.57462">
        <ele>233</ele>
        <time>2013-08-23T11:05:49Z</time>
      </trkpt>
      <trkpt lat="48.76908" lon="-0.57464">
        <ele>233</ele>
        <time>2013-08-23T11:05:50Z</time>
      </trkpt>
      <trkpt lat="48.76897" lon="-0.57469">
        <ele>232.8</ele>
        <time>2013-08-23T11:05:52Z</time>
      </trkpt>
      <trkpt lat="48.76892" lon="-0.5747">
        <ele>232.8</ele>
        <time>2013-08-23T11:05:53Z</time>
      </trkpt>
      <trkpt lat="48.76846" lon="-0.57474">
        <ele>232</ele>
        <time>2013-08-23T11:06:01Z</time>
      </trkpt>
      <trkpt lat="48.76817" lon="-0.57472">
        <ele>231</ele>
        <time>2013-08-23T11:06:07Z</time>
      </trkpt>
      <trkpt lat="48.76813" lon="-0.57471">
        <ele>230.8</ele>
        <time>2013-08-23T11:06:08Z</time>
      </trkpt>
      <trkpt lat="48.76808" lon="-0.5747">
        <ele>230.4</ele>
        <time>2013-08-23T11:06:09Z</time>
      </trkpt>
      <trkpt lat="48.76745" lon="-0.57436">
        <ele>227.6</ele>
        <time>2013-08-23T11:06:19Z</time>
      </trkpt>
      <trkpt lat="48.76683" lon="-0.57379">
        <ele>226.8</ele>
        <time>2013-08-23T11:06:31Z</time>
      </trkpt>
      <trkpt lat="48.76673" lon="-0.5737">
        <ele>227.2</ele>
        <time>2013-08-23T11:06:34Z</time>
      </trkpt>
      <trkpt lat="48.76669" lon="-0.57365">
        <ele>227.4</ele>
        <time>2013-08-23T11:06:35Z</time>
      </trkpt>
      <trkpt lat="48.7662" lon="-0.57307">
        <ele>229.2</ele>
        <time>2013-08-23T11:06:48Z</time>
      </trkpt>
      <trkpt lat="48.76615" lon="-0.57304">
        <ele>229.4</ele>
        <time>2013-08-23T11:06:49Z</time>
      </trkpt>
      <trkpt lat="48.76592" lon="-0.57293">
        <ele>231.2</ele>
        <time>2013-08-23T11:06:59Z</time>
      </trkpt>
      <trkpt lat="48.76588" lon="-0.57287">
        <ele>231.6</ele>
        <time>2013-08-23T11:07:03Z</time>
      </trkpt>
      <trkpt lat="48.76588" lon="-0.57284">
        <ele>231.6</ele>
        <time>2013-08-23T11:07:04Z</time>
      </trkpt>
      <trkpt lat="48.76588" lon="-0.5728">
        <ele>231.6</ele>
        <time>2013-08-23T11:07:05Z</time>
      </trkpt>
      <trkpt lat="48.7659" lon="-0.57276">
        <ele>231.6</ele>
        <time>2013-08-23T11:07:06Z</time>
      </trkpt>
      <trkpt lat="48.76591" lon="-0.57272">
        <ele>231.6</ele>
        <time>2013-08-23T11:07:07Z</time>
      </trkpt>
      <trkpt lat="48.76592" lon="-0.57268">
        <ele>231.6</ele>
        <time>2013-08-23T11:07:08Z</time>
      </trkpt>
      <trkpt lat="48.76592" lon="-0.57263">
        <ele>231.8</ele>
        <time>2013-08-23T11:07:09Z</time>
      </trkpt>
      <trkpt lat="48.76592" lon="-0.57258">
        <ele>231.8</ele>
        <time>2013-08-23T11:07:10Z</time>
      </trkpt>
      <trkpt lat="48.76591" lon="-0.57253">
        <ele>231.8</ele>
        <time>2013-08-23T11:07:11Z</time>
      </trkpt>
      <trkpt lat="48.76589" lon="-0.57249">
        <ele>231.8</ele>
        <time>2013-08-23T11:07:12Z</time>
      </trkpt>
      <trkpt lat="48.76586" lon="-0.57245">
        <ele>232</ele>
        <time>2013-08-23T11:07:13Z</time>
      </trkpt>
      <trkpt lat="48.76583" lon="-0.57241">
        <ele>232</ele>
        <time>2013-08-23T11:07:14Z</time>
      </trkpt>
      <trkpt lat="48.76538" lon="-0.57183">
        <ele>232.8</ele>
        <time>2013-08-23T11:07:25Z</time>
      </trkpt>
      <trkpt lat="48.76512" lon="-0.57151">
        <ele>233.4</ele>
        <time>2013-08-23T11:07:35Z</time>
      </trkpt>
      <trkpt lat="48.76507" lon="-0.57145">
        <ele>233.6</ele>
        <time>2013-08-23T11:07:38Z</time>
      </trkpt>
      <trkpt lat="48.76503" lon="-0.57135">
        <ele>233.8</ele>
        <time>2013-08-23T11:07:40Z</time>
      </trkpt>
      <trkpt lat="48.765" lon="-0.5713">
        <ele>233.8</ele>
        <time>2013-08-23T11:07:41Z</time>
      </trkpt>
      <trkpt lat="48.76496" lon="-0.57124">
        <ele>233.8</ele>
        <time>2013-08-23T11:07:42Z</time>
      </trkpt>
      <trkpt lat="48.76491" lon="-0.5712">
        <ele>233.8</ele>
        <time>2013-08-23T11:07:43Z</time>
      </trkpt>
      <trkpt lat="48.76487" lon="-0.57116">
        <ele>234</ele>
        <time>2013-08-23T11:07:44Z</time>
      </trkpt>
      <trkpt lat="48.76468" lon="-0.57099">
        <ele>234</ele>
        <time>2013-08-23T11:07:49Z</time>
      </trkpt>
      <trkpt lat="48.76463" lon="-0.57097">
        <ele>234</ele>
        <time>2013-08-23T11:07:50Z</time>
      </trkpt>
      <trkpt lat="48.7645" lon="-0.5709">
        <ele>234.4</ele>
        <time>2013-08-23T11:07:53Z</time>
      </trkpt>
      <trkpt lat="48.76422" lon="-0.57076">
        <ele>235.8</ele>
        <time>2013-08-23T11:07:59Z</time>
      </trkpt>
      <trkpt lat="48.76389" lon="-0.57063">
        <ele>237.6</ele>
        <time>2013-08-23T11:08:06Z</time>
      </trkpt>
      <trkpt lat="48.76351" lon="-0.57053">
        <ele>239.8</ele>
        <time>2013-08-23T11:08:14Z</time>
      </trkpt>
      <trkpt lat="48.76347" lon="-0.5705">
        <ele>240</ele>
        <time>2013-08-23T11:08:15Z</time>
      </trkpt>
      <trkpt lat="48.76343" lon="-0.57046">
        <ele>240.2</ele>
        <time>2013-08-23T11:08:16Z</time>
      </trkpt>
      <trkpt lat="48.7634" lon="-0.57044">
        <ele>240.4</ele>
        <time>2013-08-23T11:08:17Z</time>
      </trkpt>
      <trkpt lat="48.76337" lon="-0.57041">
        <ele>240.6</ele>
        <time>2013-08-23T11:08:18Z</time>
      </trkpt>
      <trkpt lat="48.76332" lon="-0.57037">
        <ele>240.8</ele>
        <time>2013-08-23T11:08:19Z</time>
      </trkpt>
      <trkpt lat="48.76328" lon="-0.57033">
        <ele>241</ele>
        <time>2013-08-23T11:08:20Z</time>
      </trkpt>
      <trkpt lat="48.76324" lon="-0.57029">
        <ele>241.2</ele>
        <time>2013-08-23T11:08:21Z</time>
      </trkpt>
      <trkpt lat="48.76275" lon="-0.56998">
        <ele>243.6</ele>
        <time>2013-08-23T11:08:32Z</time>
      </trkpt>
      <trkpt lat="48.76253" lon="-0.56985">
        <ele>243.8</ele>
        <time>2013-08-23T11:08:37Z</time>
      </trkpt>
      <trkpt lat="48.76234" lon="-0.56959">
        <ele>243.2</ele>
        <time>2013-08-23T11:08:41Z</time>
      </trkpt>
      <trkpt lat="48.76185" lon="-0.56914">
        <ele>240.8</ele>
        <time>2013-08-23T11:08:49Z</time>
      </trkpt>
      <trkpt lat="48.76151" lon="-0.56906">
        <ele>240</ele>
        <time>2013-08-23T11:08:54Z</time>
      </trkpt>
      <trkpt lat="48.76078" lon="-0.56867">
        <ele>241</ele>
        <time>2013-08-23T11:09:07Z</time>
      </trkpt>
      <trkpt lat="48.76049" lon="-0.56853">
        <ele>240.8</ele>
        <time>2013-08-23T11:09:12Z</time>
      </trkpt>
      <trkpt lat="48.75984" lon="-0.56843">
        <ele>240.2</ele>
        <time>2013-08-23T11:09:26Z</time>
      </trkpt>
      <trkpt lat="48.7596" lon="-0.56838">
        <ele>240.4</ele>
        <time>2013-08-23T11:09:32Z</time>
      </trkpt>
      <trkpt lat="48.75958" lon="-0.56839">
        <ele>240.2</ele>
        <time>2013-08-23T11:09:33Z</time>
      </trkpt>
      <trkpt lat="48.75956" lon="-0.56843">
        <ele>240.2</ele>
        <time>2013-08-23T11:09:34Z</time>
      </trkpt>
      <trkpt lat="48.75955" lon="-0.56848">
        <ele>240.2</ele>
        <time>2013-08-23T11:09:35Z</time>
      </trkpt>
      <trkpt lat="48.75932" lon="-0.56911">
        <ele>237.6</ele>
        <time>2013-08-23T11:09:47Z</time>
      </trkpt>
      <trkpt lat="48.7591" lon="-0.56981">
        <ele>234.6</ele>
        <time>2013-08-23T11:10:00Z</time>
      </trkpt>
      <trkpt lat="48.75905" lon="-0.57001">
        <ele>233.4</ele>
        <time>2013-08-23T11:10:10Z</time>
      </trkpt>
      <trkpt lat="48.75903" lon="-0.57004">
        <ele>233.2</ele>
        <time>2013-08-23T11:10:12Z</time>
      </trkpt>
      <trkpt lat="48.7589" lon="-0.57027">
        <ele>233</ele>
        <time>2013-08-23T11:10:22Z</time>
      </trkpt>
      <trkpt lat="48.75871" lon="-0.57079">
        <ele>232.8</ele>
        <time>2013-08-23T11:10:31Z</time>
      </trkpt>
      <trkpt lat="48.75834" lon="-0.57168">
        <ele>230.6</ele>
        <time>2013-08-23T11:10:49Z</time>
      </trkpt>
      <trkpt lat="48.75816" lon="-0.57235">
        <ele>229.6</ele>
        <time>2013-08-23T11:11:01Z</time>
      </trkpt>
      <trkpt lat="48.75793" lon="-0.5733">
        <ele>227.6</ele>
        <time>2013-08-23T11:11:15Z</time>
      </trkpt>
      <trkpt lat="48.75787" lon="-0.57352">
        <ele>227.2</ele>
        <time>2013-08-23T11:11:18Z</time>
      </trkpt>
      <trkpt lat="48.75786" lon="-0.57359">
        <ele>227</ele>
        <time>2013-08-23T11:11:19Z</time>
      </trkpt>
      <trkpt lat="48.75779" lon="-0.57386">
        <ele>226.4</ele>
        <time>2013-08-23T11:11:23Z</time>
      </trkpt>
      <trkpt lat="48.7576" lon="-0.57454">
        <ele>224.6</ele>
        <time>2013-08-23T11:11:35Z</time>
      </trkpt>
      <trkpt lat="48.75749" lon="-0.57496">
        <ele>224.2</ele>
        <time>2013-08-23T11:11:44Z</time>
      </trkpt>
      <trkpt lat="48.75739" lon="-0.57545">
        <ele>223.4</ele>
        <time>2013-08-23T11:11:57Z</time>
      </trkpt>
      <trkpt lat="48.75738" lon="-0.57549">
        <ele>223</ele>
        <time>2013-08-23T11:12:03Z</time>
      </trkpt>
      <trkpt lat="48.7573" lon="-0.5755">
        <ele>222.8</ele>
        <time>2013-08-23T11:12:26Z</time>
      </trkpt>
      <trkpt lat="48.75681" lon="-0.57498">
        <ele>222.6</ele>
        <time>2013-08-23T11:12:36Z</time>
      </trkpt>
      <trkpt lat="48.75595" lon="-0.57408">
        <ele>222</ele>
        <time>2013-08-23T11:12:54Z</time>
      </trkpt>
      <trkpt lat="48.75542" lon="-0.57348">
        <ele>221.8</ele>
        <time>2013-08-23T11:13:08Z</time>
      </trkpt>
      <trkpt lat="48.75503" lon="-0.57307">
        <ele>221.2</ele>
        <time>2013-08-23T11:13:19Z</time>
      </trkpt>
      <trkpt lat="48.75457" lon="-0.57278">
        <ele>219.6</ele>
        <time>2013-08-23T11:13:30Z</time>
      </trkpt>
      <trkpt lat="48.75455" lon="-0.57281">
        <ele>219.6</ele>
        <time>2013-08-23T11:13:31Z</time>
      </trkpt>
      <trkpt lat="48.75455" lon="-0.57286">
        <ele>219.4</ele>
        <time>2013-08-23T11:13:32Z</time>
      </trkpt>
      <trkpt lat="48.75439" lon="-0.5731">
        <ele>219</ele>
        <time>2013-08-23T11:13:42Z</time>
      </trkpt>
      <trkpt lat="48.75439" lon="-0.57311">
        <ele>219.2</ele>
        <time>2013-08-23T11:13:45Z</time>
      </trkpt>
      <trkpt lat="48.75428" lon="-0.5732">
        <ele>219.4</ele>
        <time>2013-08-23T11:16:08Z</time>
      </trkpt>
      <trkpt lat="48.75406" lon="-0.57368">
        <ele>219.8</ele>
        <time>2013-08-23T11:16:21Z</time>
      </trkpt>
      <trkpt lat="48.75398" lon="-0.57397">
        <ele>219.8</ele>
        <time>2013-08-23T11:16:28Z</time>
      </trkpt>
      <trkpt lat="48.75386" lon="-0.57427">
        <ele>219.4</ele>
        <time>2013-08-23T11:16:35Z</time>
      </trkpt>
      <trkpt lat="48.75357" lon="-0.57479">
        <ele>217.2</ele>
        <time>2013-08-23T11:16:47Z</time>
      </trkpt>
      <trkpt lat="48.75355" lon="-0.5748">
        <ele>217</ele>
        <time>2013-08-23T11:16:48Z</time>
      </trkpt>
      <trkpt lat="48.75352" lon="-0.5748">
        <ele>216.8</ele>
        <time>2013-08-23T11:16:49Z</time>
      </trkpt>
      <trkpt lat="48.75349" lon="-0.57477">
        <ele>216.4</ele>
        <time>2013-08-23T11:16:50Z</time>
      </trkpt>
      <trkpt lat="48.75305" lon="-0.57447">
        <ele>213.2</ele>
        <time>2013-08-23T11:16:59Z</time>
      </trkpt>
      <trkpt lat="48.75256" lon="-0.57423">
        <ele>212</ele>
        <time>2013-08-23T11:17:11Z</time>
      </trkpt>
      <trkpt lat="48.75249" lon="-0.57419">
        <ele>212.8</ele>
        <time>2013-08-23T11:17:21Z</time>
      </trkpt>
      <trkpt lat="48.75241" lon="-0.57444">
        <ele>212.8</ele>
        <time>2013-08-23T11:17:28Z</time>
      </trkpt>
      <trkpt lat="48.7524" lon="-0.57453">
        <ele>212.8</ele>
        <time>2013-08-23T11:17:29Z</time>
      </trkpt>
      <trkpt lat="48.75238" lon="-0.57462">
        <ele>212.8</ele>
        <time>2013-08-23T11:17:30Z</time>
      </trkpt>
      <trkpt lat="48.75235" lon="-0.57479">
        <ele>212.6</ele>
        <time>2013-08-23T11:17:32Z</time>
      </trkpt>
      <trkpt lat="48.75233" lon="-0.57498">
        <ele>212.2</ele>
        <time>2013-08-23T11:17:34Z</time>
      </trkpt>
      <trkpt lat="48.7523" lon="-0.57503">
        <ele>212</ele>
        <time>2013-08-23T11:17:35Z</time>
      </trkpt>
      <trkpt lat="48.75226" lon="-0.57505">
        <ele>212</ele>
        <time>2013-08-23T11:17:36Z</time>
      </trkpt>
      <trkpt lat="48.75222" lon="-0.57501">
        <ele>211.8</ele>
        <time>2013-08-23T11:17:37Z</time>
      </trkpt>
      <trkpt lat="48.75219" lon="-0.57495">
        <ele>211.6</ele>
        <time>2013-08-23T11:17:38Z</time>
      </trkpt>
      <trkpt lat="48.75216" lon="-0.57486">
        <ele>211.6</ele>
        <time>2013-08-23T11:17:39Z</time>
      </trkpt>
      <trkpt lat="48.75212" lon="-0.57477">
        <ele>211.4</ele>
        <time>2013-08-23T11:17:40Z</time>
      </trkpt>
      <trkpt lat="48.75207" lon="-0.57469">
        <ele>211.4</ele>
        <time>2013-08-23T11:17:41Z</time>
      </trkpt>
      <trkpt lat="48.75203" lon="-0.57464">
        <ele>211.4</ele>
        <time>2013-08-23T11:17:42Z</time>
      </trkpt>
      <trkpt lat="48.75197" lon="-0.57458">
        <ele>211.2</ele>
        <time>2013-08-23T11:17:43Z</time>
      </trkpt>
      <trkpt lat="48.75192" lon="-0.57454">
        <ele>211.2</ele>
        <time>2013-08-23T11:17:44Z</time>
      </trkpt>
      <trkpt lat="48.75186" lon="-0.5745">
        <ele>211.2</ele>
        <time>2013-08-23T11:17:45Z</time>
      </trkpt>
      <trkpt lat="48.75146" lon="-0.57417">
        <ele>211.6</ele>
        <time>2013-08-23T11:17:52Z</time>
      </trkpt>
      <trkpt lat="48.7507" lon="-0.5735">
        <ele>212</ele>
        <time>2013-08-23T11:18:07Z</time>
      </trkpt>
      <trkpt lat="48.74996" lon="-0.57288">
        <ele>212.6</ele>
        <time>2013-08-23T11:18:23Z</time>
      </trkpt>
      <trkpt lat="48.74993" lon="-0.57291">
        <ele>212.8</ele>
        <time>2013-08-23T11:18:24Z</time>
      </trkpt>
      <trkpt lat="48.74992" lon="-0.57296">
        <ele>212.8</ele>
        <time>2013-08-23T11:18:25Z</time>
      </trkpt>
      <trkpt lat="48.7499" lon="-0.57304">
        <ele>213</ele>
        <time>2013-08-23T11:18:26Z</time>
      </trkpt>
      <trkpt lat="48.74987" lon="-0.57311">
        <ele>213</ele>
        <time>2013-08-23T11:18:27Z</time>
      </trkpt>
      <trkpt lat="48.74961" lon="-0.574">
        <ele>212</ele>
        <time>2013-08-23T11:18:37Z</time>
      </trkpt>
      <trkpt lat="48.74954" lon="-0.57407">
        <ele>212</ele>
        <time>2013-08-23T11:18:38Z</time>
      </trkpt>
      <trkpt lat="48.74949" lon="-0.5741">
        <ele>211.8</ele>
        <time>2013-08-23T11:18:39Z</time>
      </trkpt>
      <trkpt lat="48.74944" lon="-0.57408">
        <ele>211.6</ele>
        <time>2013-08-23T11:18:40Z</time>
      </trkpt>
      <trkpt lat="48.74939" lon="-0.57404">
        <ele>211.6</ele>
        <time>2013-08-23T11:18:41Z</time>
      </trkpt>
      <trkpt lat="48.74934" lon="-0.57399">
        <ele>211.6</ele>
        <time>2013-08-23T11:18:42Z</time>
      </trkpt>
      <trkpt lat="48.74899" lon="-0.57368">
        <ele>211.6</ele>
        <time>2013-08-23T11:18:49Z</time>
      </trkpt>
      <trkpt lat="48.74894" lon="-0.57364">
        <ele>211.6</ele>
        <time>2013-08-23T11:18:50Z</time>
      </trkpt>
      <trkpt lat="48.74823" lon="-0.573">
        <ele>212.2</ele>
        <time>2013-08-23T11:19:04Z</time>
      </trkpt>
      <trkpt lat="48.7478" lon="-0.57255">
        <ele>212.8</ele>
        <time>2013-08-23T11:19:14Z</time>
      </trkpt>
      <trkpt lat="48.74774" lon="-0.57233">
        <ele>213.4</ele>
        <time>2013-08-23T11:19:23Z</time>
      </trkpt>
      <trkpt lat="48.74778" lon="-0.57222">
        <ele>213.6</ele>
        <time>2013-08-23T11:19:29Z</time>
      </trkpt>
      <trkpt lat="48.74785" lon="-0.57222">
        <ele>213.6</ele>
        <time>2013-08-23T11:19:36Z</time>
      </trkpt>
    </trkseg>
  </trk>
</gpx>